<?xml version="1.0" encoding="UTF-8" standalone="no" ?>
<gpx xmlns="http://www.topografix.com/GPX/1/1" xmlns:xsi="http://www.w3.org/2001/XMLSchema-instance" xsi:schemaLocation="http://www.topografix.com/GPX/1/1 http://www.topografix.com/GPX/1/1/gpx.xsd" version="1.1" creator="VisuGPX - https://www.visugpx.com">
  <metadata>
    <name>Nax Mase</name>
    <desc><![CDATA[Points: 1196 points.
Distance : 12.411 km.
Durée: 04:03:22
Moy. Globale: 3.1 km./heure
Vitesse Max.: 16.6 km./heure
Altitude Maximale: 1389 m.
Altitude Minimale: 1245 m.
Date de : jeudi, 5 mai 2016
Heure Départ: 10:46:23
]]></desc>
  </metadata>
  <trk>
    <name><![CDATA[jeu. 05.Mai.2016 10:46:23]]></name>
    <trkseg>
      <trkpt lat="46.22626" lon="7.42484">
        <ele>1281</ele>
        <time>2016-05-05T08:46:23Z</time>
      </trkpt>
      <trkpt lat="46.22626" lon="7.42483">
        <ele>1280</ele>
        <time>2016-05-05T08:46:24Z</time>
      </trkpt>
      <trkpt lat="46.22625" lon="7.42483">
        <ele>1279</ele>
        <time>2016-05-05T08:46:25Z</time>
      </trkpt>
      <trkpt lat="46.22625" lon="7.42484">
        <ele>1280</ele>
        <time>2016-05-05T08:46:26Z</time>
      </trkpt>
      <trkpt lat="46.22625" lon="7.42484">
        <ele>1280</ele>
        <time>2016-05-05T08:46:27Z</time>
      </trkpt>
      <trkpt lat="46.22626" lon="7.42484">
        <ele>1280</ele>
        <time>2016-05-05T08:46:29Z</time>
      </trkpt>
      <trkpt lat="46.22626" lon="7.42482">
        <ele>1280</ele>
        <time>2016-05-05T08:46:31Z</time>
      </trkpt>
      <trkpt lat="46.22626" lon="7.42482">
        <ele>1280</ele>
        <time>2016-05-05T08:46:32Z</time>
      </trkpt>
      <trkpt lat="46.22626" lon="7.42482">
        <ele>1281</ele>
        <time>2016-05-05T08:46:34Z</time>
      </trkpt>
      <trkpt lat="46.22626" lon="7.42482">
        <ele>1281</ele>
        <time>2016-05-05T08:46:37Z</time>
      </trkpt>
      <trkpt lat="46.22641" lon="7.42488">
        <ele>1286</ele>
        <time>2016-05-05T08:47:15Z</time>
      </trkpt>
      <trkpt lat="46.22648" lon="7.42507">
        <ele>1288</ele>
        <time>2016-05-05T08:47:25Z</time>
      </trkpt>
      <trkpt lat="46.22657" lon="7.42511">
        <ele>1289</ele>
        <time>2016-05-05T08:47:33Z</time>
      </trkpt>
      <trkpt lat="46.22657" lon="7.42533">
        <ele>1289</ele>
        <time>2016-05-05T08:47:54Z</time>
      </trkpt>
      <trkpt lat="46.22657" lon="7.42535">
        <ele>1290</ele>
        <time>2016-05-05T08:47:55Z</time>
      </trkpt>
      <trkpt lat="46.22648" lon="7.42553">
        <ele>1295</ele>
        <time>2016-05-05T08:48:03Z</time>
      </trkpt>
      <trkpt lat="46.22644" lon="7.4256">
        <ele>1295</ele>
        <time>2016-05-05T08:48:04Z</time>
      </trkpt>
      <trkpt lat="46.22643" lon="7.42567">
        <ele>1296</ele>
        <time>2016-05-05T08:48:09Z</time>
      </trkpt>
      <trkpt lat="46.22643" lon="7.42592">
        <ele>1306</ele>
        <time>2016-05-05T08:48:22Z</time>
      </trkpt>
      <trkpt lat="46.22636" lon="7.42619">
        <ele>1307</ele>
        <time>2016-05-05T08:48:24Z</time>
      </trkpt>
      <trkpt lat="46.22651" lon="7.42593">
        <ele>1306</ele>
        <time>2016-05-05T08:48:25Z</time>
      </trkpt>
      <trkpt lat="46.22659" lon="7.4258">
        <ele>1304</ele>
        <time>2016-05-05T08:48:26Z</time>
      </trkpt>
      <trkpt lat="46.22655" lon="7.42581">
        <ele>1304</ele>
        <time>2016-05-05T08:48:27Z</time>
      </trkpt>
      <trkpt lat="46.22653" lon="7.42587">
        <ele>1307</ele>
        <time>2016-05-05T08:48:31Z</time>
      </trkpt>
      <trkpt lat="46.22664" lon="7.42571">
        <ele>1301</ele>
        <time>2016-05-05T08:48:37Z</time>
      </trkpt>
      <trkpt lat="46.22666" lon="7.42574">
        <ele>1303</ele>
        <time>2016-05-05T08:48:38Z</time>
      </trkpt>
      <trkpt lat="46.22666" lon="7.42577">
        <ele>1304</ele>
        <time>2016-05-05T08:48:40Z</time>
      </trkpt>
      <trkpt lat="46.22664" lon="7.42583">
        <ele>1305</ele>
        <time>2016-05-05T08:48:41Z</time>
      </trkpt>
      <trkpt lat="46.22664" lon="7.42583">
        <ele>1305</ele>
        <time>2016-05-05T08:48:42Z</time>
      </trkpt>
      <trkpt lat="46.22665" lon="7.42575">
        <ele>1303</ele>
        <time>2016-05-05T08:48:43Z</time>
      </trkpt>
      <trkpt lat="46.22664" lon="7.42576">
        <ele>1304</ele>
        <time>2016-05-05T08:48:44Z</time>
      </trkpt>
      <trkpt lat="46.22665" lon="7.42575">
        <ele>1303</ele>
        <time>2016-05-05T08:48:45Z</time>
      </trkpt>
      <trkpt lat="46.22666" lon="7.42578">
        <ele>1303</ele>
        <time>2016-05-05T08:48:46Z</time>
      </trkpt>
      <trkpt lat="46.22663" lon="7.42604">
        <ele>1301</ele>
        <time>2016-05-05T08:48:54Z</time>
      </trkpt>
      <trkpt lat="46.22662" lon="7.42605">
        <ele>1301</ele>
        <time>2016-05-05T08:48:55Z</time>
      </trkpt>
      <trkpt lat="46.22662" lon="7.42616">
        <ele>1303</ele>
        <time>2016-05-05T08:48:56Z</time>
      </trkpt>
      <trkpt lat="46.22666" lon="7.42616">
        <ele>1303</ele>
        <time>2016-05-05T08:48:57Z</time>
      </trkpt>
      <trkpt lat="46.22668" lon="7.4262">
        <ele>1304</ele>
        <time>2016-05-05T08:48:59Z</time>
      </trkpt>
      <trkpt lat="46.2267" lon="7.42619">
        <ele>1305</ele>
        <time>2016-05-05T08:49:01Z</time>
      </trkpt>
      <trkpt lat="46.22656" lon="7.42625">
        <ele>1294</ele>
        <time>2016-05-05T08:49:17Z</time>
      </trkpt>
      <trkpt lat="46.22655" lon="7.42623">
        <ele>1291</ele>
        <time>2016-05-05T08:49:19Z</time>
      </trkpt>
      <trkpt lat="46.22651" lon="7.42623">
        <ele>1286</ele>
        <time>2016-05-05T08:49:35Z</time>
      </trkpt>
      <trkpt lat="46.22638" lon="7.42648">
        <ele>1283</ele>
        <time>2016-05-05T08:50:14Z</time>
      </trkpt>
      <trkpt lat="46.22632" lon="7.42662">
        <ele>1285</ele>
        <time>2016-05-05T08:50:16Z</time>
      </trkpt>
      <trkpt lat="46.22627" lon="7.42684">
        <ele>1283</ele>
        <time>2016-05-05T08:50:31Z</time>
      </trkpt>
      <trkpt lat="46.22622" lon="7.42685">
        <ele>1282</ele>
        <time>2016-05-05T08:50:34Z</time>
      </trkpt>
      <trkpt lat="46.22618" lon="7.42694">
        <ele>1278</ele>
        <time>2016-05-05T08:50:37Z</time>
      </trkpt>
      <trkpt lat="46.22607" lon="7.42674">
        <ele>1270</ele>
        <time>2016-05-05T08:50:42Z</time>
      </trkpt>
      <trkpt lat="46.22609" lon="7.42678">
        <ele>1275</ele>
        <time>2016-05-05T08:50:45Z</time>
      </trkpt>
      <trkpt lat="46.226" lon="7.42694">
        <ele>1277</ele>
        <time>2016-05-05T08:50:59Z</time>
      </trkpt>
      <trkpt lat="46.22587" lon="7.42709">
        <ele>1284</ele>
        <time>2016-05-05T08:51:06Z</time>
      </trkpt>
      <trkpt lat="46.22583" lon="7.4273">
        <ele>1285</ele>
        <time>2016-05-05T08:51:23Z</time>
      </trkpt>
      <trkpt lat="46.22581" lon="7.42735">
        <ele>1284</ele>
        <time>2016-05-05T08:51:24Z</time>
      </trkpt>
      <trkpt lat="46.22582" lon="7.42737">
        <ele>1284</ele>
        <time>2016-05-05T08:51:25Z</time>
      </trkpt>
      <trkpt lat="46.22581" lon="7.42736">
        <ele>1284</ele>
        <time>2016-05-05T08:51:26Z</time>
      </trkpt>
      <trkpt lat="46.22575" lon="7.42742">
        <ele>1284</ele>
        <time>2016-05-05T08:51:27Z</time>
      </trkpt>
      <trkpt lat="46.22576" lon="7.42743">
        <ele>1284</ele>
        <time>2016-05-05T08:51:29Z</time>
      </trkpt>
      <trkpt lat="46.22572" lon="7.42748">
        <ele>1284</ele>
        <time>2016-05-05T08:51:30Z</time>
      </trkpt>
      <trkpt lat="46.22566" lon="7.42756">
        <ele>1284</ele>
        <time>2016-05-05T08:51:31Z</time>
      </trkpt>
      <trkpt lat="46.22562" lon="7.42764">
        <ele>1284</ele>
        <time>2016-05-05T08:51:33Z</time>
      </trkpt>
      <trkpt lat="46.22557" lon="7.42769">
        <ele>1286</ele>
        <time>2016-05-05T08:51:36Z</time>
      </trkpt>
      <trkpt lat="46.22546" lon="7.42785">
        <ele>1262</ele>
        <time>2016-05-05T08:52:19Z</time>
      </trkpt>
      <trkpt lat="46.22531" lon="7.42779">
        <ele>1261</ele>
        <time>2016-05-05T08:52:29Z</time>
      </trkpt>
      <trkpt lat="46.2252" lon="7.42764">
        <ele>1264</ele>
        <time>2016-05-05T08:52:38Z</time>
      </trkpt>
      <trkpt lat="46.2251" lon="7.42766">
        <ele>1259</ele>
        <time>2016-05-05T08:52:45Z</time>
      </trkpt>
      <trkpt lat="46.22514" lon="7.42774">
        <ele>1257</ele>
        <time>2016-05-05T08:52:46Z</time>
      </trkpt>
      <trkpt lat="46.22511" lon="7.42775">
        <ele>1254</ele>
        <time>2016-05-05T08:52:47Z</time>
      </trkpt>
      <trkpt lat="46.22508" lon="7.42776">
        <ele>1250</ele>
        <time>2016-05-05T08:52:48Z</time>
      </trkpt>
      <trkpt lat="46.22506" lon="7.42781">
        <ele>1250</ele>
        <time>2016-05-05T08:52:51Z</time>
      </trkpt>
      <trkpt lat="46.22505" lon="7.42786">
        <ele>1250</ele>
        <time>2016-05-05T08:52:53Z</time>
      </trkpt>
      <trkpt lat="46.2249" lon="7.42791">
        <ele>1248</ele>
        <time>2016-05-05T08:53:10Z</time>
      </trkpt>
      <trkpt lat="46.22486" lon="7.42791">
        <ele>1249</ele>
        <time>2016-05-05T08:53:11Z</time>
      </trkpt>
      <trkpt lat="46.22472" lon="7.42787">
        <ele>1246</ele>
        <time>2016-05-05T08:53:20Z</time>
      </trkpt>
      <trkpt lat="46.22468" lon="7.42789">
        <ele>1246</ele>
        <time>2016-05-05T08:53:21Z</time>
      </trkpt>
      <trkpt lat="46.22454" lon="7.42795">
        <ele>1249</ele>
        <time>2016-05-05T08:53:29Z</time>
      </trkpt>
      <trkpt lat="46.22452" lon="7.42791">
        <ele>1246</ele>
        <time>2016-05-05T08:53:31Z</time>
      </trkpt>
      <trkpt lat="46.22451" lon="7.42787">
        <ele>1245</ele>
        <time>2016-05-05T08:53:32Z</time>
      </trkpt>
      <trkpt lat="46.22452" lon="7.42789">
        <ele>1245</ele>
        <time>2016-05-05T08:53:33Z</time>
      </trkpt>
      <trkpt lat="46.22451" lon="7.42788">
        <ele>1245</ele>
        <time>2016-05-05T08:53:34Z</time>
      </trkpt>
      <trkpt lat="46.22469" lon="7.42794">
        <ele>1257</ele>
        <time>2016-05-05T08:53:43Z</time>
      </trkpt>
      <trkpt lat="46.22458" lon="7.42809">
        <ele>1260</ele>
        <time>2016-05-05T08:53:49Z</time>
      </trkpt>
      <trkpt lat="46.22456" lon="7.42813">
        <ele>1260</ele>
        <time>2016-05-05T08:53:50Z</time>
      </trkpt>
      <trkpt lat="46.22457" lon="7.42815">
        <ele>1259</ele>
        <time>2016-05-05T08:53:51Z</time>
      </trkpt>
      <trkpt lat="46.22455" lon="7.42816">
        <ele>1259</ele>
        <time>2016-05-05T08:53:52Z</time>
      </trkpt>
      <trkpt lat="46.22444" lon="7.42798">
        <ele>1258</ele>
        <time>2016-05-05T08:53:55Z</time>
      </trkpt>
      <trkpt lat="46.22432" lon="7.42786">
        <ele>1258</ele>
        <time>2016-05-05T08:54:00Z</time>
      </trkpt>
      <trkpt lat="46.22426" lon="7.42778">
        <ele>1260</ele>
        <time>2016-05-05T08:54:03Z</time>
      </trkpt>
      <trkpt lat="46.22417" lon="7.42788">
        <ele>1264</ele>
        <time>2016-05-05T08:54:16Z</time>
      </trkpt>
      <trkpt lat="46.22414" lon="7.42789">
        <ele>1264</ele>
        <time>2016-05-05T08:54:17Z</time>
      </trkpt>
      <trkpt lat="46.22398" lon="7.42792">
        <ele>1263</ele>
        <time>2016-05-05T08:54:27Z</time>
      </trkpt>
      <trkpt lat="46.22392" lon="7.42793">
        <ele>1261</ele>
        <time>2016-05-05T08:54:29Z</time>
      </trkpt>
      <trkpt lat="46.22386" lon="7.42811">
        <ele>1267</ele>
        <time>2016-05-05T08:54:40Z</time>
      </trkpt>
      <trkpt lat="46.22372" lon="7.42825">
        <ele>1270</ele>
        <time>2016-05-05T08:54:59Z</time>
      </trkpt>
      <trkpt lat="46.22358" lon="7.42833">
        <ele>1269</ele>
        <time>2016-05-05T08:55:12Z</time>
      </trkpt>
      <trkpt lat="46.22357" lon="7.42833">
        <ele>1269</ele>
        <time>2016-05-05T08:55:13Z</time>
      </trkpt>
      <trkpt lat="46.22353" lon="7.42835">
        <ele>1270</ele>
        <time>2016-05-05T08:55:15Z</time>
      </trkpt>
      <trkpt lat="46.22346" lon="7.42842">
        <ele>1273</ele>
        <time>2016-05-05T08:55:17Z</time>
      </trkpt>
      <trkpt lat="46.22351" lon="7.42843">
        <ele>1271</ele>
        <time>2016-05-05T08:55:18Z</time>
      </trkpt>
      <trkpt lat="46.22335" lon="7.42846">
        <ele>1270</ele>
        <time>2016-05-05T08:55:24Z</time>
      </trkpt>
      <trkpt lat="46.22339" lon="7.42853">
        <ele>1273</ele>
        <time>2016-05-05T08:55:26Z</time>
      </trkpt>
      <trkpt lat="46.22337" lon="7.42849">
        <ele>1274</ele>
        <time>2016-05-05T08:55:27Z</time>
      </trkpt>
      <trkpt lat="46.22338" lon="7.42849">
        <ele>1273</ele>
        <time>2016-05-05T08:55:29Z</time>
      </trkpt>
      <trkpt lat="46.22335" lon="7.42852">
        <ele>1274</ele>
        <time>2016-05-05T08:55:30Z</time>
      </trkpt>
      <trkpt lat="46.22317" lon="7.4285">
        <ele>1267</ele>
        <time>2016-05-05T08:55:45Z</time>
      </trkpt>
      <trkpt lat="46.22305" lon="7.42867">
        <ele>1268</ele>
        <time>2016-05-05T08:55:48Z</time>
      </trkpt>
      <trkpt lat="46.22299" lon="7.42865">
        <ele>1268</ele>
        <time>2016-05-05T08:55:51Z</time>
      </trkpt>
      <trkpt lat="46.22304" lon="7.42872">
        <ele>1273</ele>
        <time>2016-05-05T08:55:52Z</time>
      </trkpt>
      <trkpt lat="46.22303" lon="7.42874">
        <ele>1273</ele>
        <time>2016-05-05T08:55:54Z</time>
      </trkpt>
      <trkpt lat="46.22303" lon="7.42877">
        <ele>1278</ele>
        <time>2016-05-05T08:55:55Z</time>
      </trkpt>
      <trkpt lat="46.22286" lon="7.42882">
        <ele>1276</ele>
        <time>2016-05-05T08:56:09Z</time>
      </trkpt>
      <trkpt lat="46.22284" lon="7.42883">
        <ele>1275</ele>
        <time>2016-05-05T08:56:10Z</time>
      </trkpt>
      <trkpt lat="46.22272" lon="7.42891">
        <ele>1283</ele>
        <time>2016-05-05T08:56:32Z</time>
      </trkpt>
      <trkpt lat="46.2227" lon="7.4289">
        <ele>1283</ele>
        <time>2016-05-05T08:56:33Z</time>
      </trkpt>
      <trkpt lat="46.22267" lon="7.42891">
        <ele>1285</ele>
        <time>2016-05-05T08:57:33Z</time>
      </trkpt>
      <trkpt lat="46.22267" lon="7.42891">
        <ele>1287</ele>
        <time>2016-05-05T08:57:54Z</time>
      </trkpt>
      <trkpt lat="46.22267" lon="7.42891">
        <ele>1287</ele>
        <time>2016-05-05T08:58:00Z</time>
      </trkpt>
      <trkpt lat="46.22251" lon="7.42888">
        <ele>1285</ele>
        <time>2016-05-05T08:58:44Z</time>
      </trkpt>
      <trkpt lat="46.22239" lon="7.42901">
        <ele>1291</ele>
        <time>2016-05-05T08:58:53Z</time>
      </trkpt>
      <trkpt lat="46.22225" lon="7.42907">
        <ele>1295</ele>
        <time>2016-05-05T08:59:01Z</time>
      </trkpt>
      <trkpt lat="46.22219" lon="7.42908">
        <ele>1296</ele>
        <time>2016-05-05T08:59:06Z</time>
      </trkpt>
      <trkpt lat="46.22208" lon="7.42922">
        <ele>1291</ele>
        <time>2016-05-05T08:59:17Z</time>
      </trkpt>
      <trkpt lat="46.22194" lon="7.42925">
        <ele>1294</ele>
        <time>2016-05-05T08:59:28Z</time>
      </trkpt>
      <trkpt lat="46.22185" lon="7.42933">
        <ele>1297</ele>
        <time>2016-05-05T08:59:39Z</time>
      </trkpt>
      <trkpt lat="46.22181" lon="7.42922">
        <ele>1309</ele>
        <time>2016-05-05T08:59:49Z</time>
      </trkpt>
      <trkpt lat="46.22178" lon="7.42921">
        <ele>1310</ele>
        <time>2016-05-05T08:59:51Z</time>
      </trkpt>
      <trkpt lat="46.22175" lon="7.42918">
        <ele>1309</ele>
        <time>2016-05-05T09:00:01Z</time>
      </trkpt>
      <trkpt lat="46.2216" lon="7.42913">
        <ele>1306</ele>
        <time>2016-05-05T09:02:24Z</time>
      </trkpt>
      <trkpt lat="46.22149" lon="7.42905">
        <ele>1307</ele>
        <time>2016-05-05T09:02:27Z</time>
      </trkpt>
      <trkpt lat="46.22136" lon="7.42918">
        <ele>1302</ele>
        <time>2016-05-05T09:02:33Z</time>
      </trkpt>
      <trkpt lat="46.22123" lon="7.42926">
        <ele>1305</ele>
        <time>2016-05-05T09:02:44Z</time>
      </trkpt>
      <trkpt lat="46.22123" lon="7.42929">
        <ele>1307</ele>
        <time>2016-05-05T09:02:46Z</time>
      </trkpt>
      <trkpt lat="46.2212" lon="7.42931">
        <ele>1307</ele>
        <time>2016-05-05T09:02:48Z</time>
      </trkpt>
      <trkpt lat="46.22105" lon="7.42937">
        <ele>1306</ele>
        <time>2016-05-05T09:02:59Z</time>
      </trkpt>
      <trkpt lat="46.22096" lon="7.42922">
        <ele>1299</ele>
        <time>2016-05-05T09:03:07Z</time>
      </trkpt>
      <trkpt lat="46.22096" lon="7.42923">
        <ele>1300</ele>
        <time>2016-05-05T09:03:08Z</time>
      </trkpt>
      <trkpt lat="46.22092" lon="7.42943">
        <ele>1301</ele>
        <time>2016-05-05T09:03:13Z</time>
      </trkpt>
      <trkpt lat="46.22092" lon="7.42949">
        <ele>1302</ele>
        <time>2016-05-05T09:03:14Z</time>
      </trkpt>
      <trkpt lat="46.2209" lon="7.42947">
        <ele>1300</ele>
        <time>2016-05-05T09:03:15Z</time>
      </trkpt>
      <trkpt lat="46.22078" lon="7.42936">
        <ele>1300</ele>
        <time>2016-05-05T09:03:24Z</time>
      </trkpt>
      <trkpt lat="46.22068" lon="7.42932">
        <ele>1300</ele>
        <time>2016-05-05T09:03:30Z</time>
      </trkpt>
      <trkpt lat="46.22055" lon="7.42915">
        <ele>1298</ele>
        <time>2016-05-05T09:03:42Z</time>
      </trkpt>
      <trkpt lat="46.22058" lon="7.42931">
        <ele>1299</ele>
        <time>2016-05-05T09:03:48Z</time>
      </trkpt>
      <trkpt lat="46.22053" lon="7.42931">
        <ele>1301</ele>
        <time>2016-05-05T09:04:02Z</time>
      </trkpt>
      <trkpt lat="46.22048" lon="7.42925">
        <ele>1303</ele>
        <time>2016-05-05T09:04:46Z</time>
      </trkpt>
      <trkpt lat="46.22034" lon="7.42922">
        <ele>1311</ele>
        <time>2016-05-05T09:05:03Z</time>
      </trkpt>
      <trkpt lat="46.22019" lon="7.4292">
        <ele>1316</ele>
        <time>2016-05-05T09:05:12Z</time>
      </trkpt>
      <trkpt lat="46.22018" lon="7.42921">
        <ele>1316</ele>
        <time>2016-05-05T09:05:13Z</time>
      </trkpt>
      <trkpt lat="46.22006" lon="7.42931">
        <ele>1312</ele>
        <time>2016-05-05T09:05:30Z</time>
      </trkpt>
      <trkpt lat="46.22" lon="7.42934">
        <ele>1311</ele>
        <time>2016-05-05T09:05:32Z</time>
      </trkpt>
      <trkpt lat="46.21986" lon="7.42944">
        <ele>1308</ele>
        <time>2016-05-05T09:05:48Z</time>
      </trkpt>
      <trkpt lat="46.21973" lon="7.42961">
        <ele>1310</ele>
        <time>2016-05-05T09:05:56Z</time>
      </trkpt>
      <trkpt lat="46.21971" lon="7.42973">
        <ele>1309</ele>
        <time>2016-05-05T09:06:01Z</time>
      </trkpt>
      <trkpt lat="46.21956" lon="7.42979">
        <ele>1307</ele>
        <time>2016-05-05T09:06:10Z</time>
      </trkpt>
      <trkpt lat="46.21961" lon="7.43005">
        <ele>1310</ele>
        <time>2016-05-05T09:06:23Z</time>
      </trkpt>
      <trkpt lat="46.2195" lon="7.43017">
        <ele>1316</ele>
        <time>2016-05-05T09:06:40Z</time>
      </trkpt>
      <trkpt lat="46.21947" lon="7.43016">
        <ele>1316</ele>
        <time>2016-05-05T09:06:41Z</time>
      </trkpt>
      <trkpt lat="46.21938" lon="7.43014">
        <ele>1315</ele>
        <time>2016-05-05T09:06:47Z</time>
      </trkpt>
      <trkpt lat="46.21921" lon="7.43006">
        <ele>1308</ele>
        <time>2016-05-05T09:06:56Z</time>
      </trkpt>
      <trkpt lat="46.21926" lon="7.43013">
        <ele>1310</ele>
        <time>2016-05-05T09:06:58Z</time>
      </trkpt>
      <trkpt lat="46.21923" lon="7.43012">
        <ele>1308</ele>
        <time>2016-05-05T09:07:01Z</time>
      </trkpt>
      <trkpt lat="46.21908" lon="7.43011">
        <ele>1304</ele>
        <time>2016-05-05T09:07:21Z</time>
      </trkpt>
      <trkpt lat="46.21907" lon="7.43013">
        <ele>1308</ele>
        <time>2016-05-05T09:07:22Z</time>
      </trkpt>
      <trkpt lat="46.21906" lon="7.43017">
        <ele>1306</ele>
        <time>2016-05-05T09:07:28Z</time>
      </trkpt>
      <trkpt lat="46.21904" lon="7.43018">
        <ele>1306</ele>
        <time>2016-05-05T09:07:29Z</time>
      </trkpt>
      <trkpt lat="46.21903" lon="7.43019">
        <ele>1308</ele>
        <time>2016-05-05T09:07:42Z</time>
      </trkpt>
      <trkpt lat="46.21888" lon="7.43023">
        <ele>1308</ele>
        <time>2016-05-05T09:08:21Z</time>
      </trkpt>
      <trkpt lat="46.21874" lon="7.4302">
        <ele>1307</ele>
        <time>2016-05-05T09:08:26Z</time>
      </trkpt>
      <trkpt lat="46.2187" lon="7.43026">
        <ele>1308</ele>
        <time>2016-05-05T09:08:27Z</time>
      </trkpt>
      <trkpt lat="46.21855" lon="7.4302">
        <ele>1317</ele>
        <time>2016-05-05T09:08:33Z</time>
      </trkpt>
      <trkpt lat="46.21849" lon="7.43019">
        <ele>1321</ele>
        <time>2016-05-05T09:08:34Z</time>
      </trkpt>
      <trkpt lat="46.21851" lon="7.43024">
        <ele>1324</ele>
        <time>2016-05-05T09:08:35Z</time>
      </trkpt>
      <trkpt lat="46.21835" lon="7.43005">
        <ele>1321</ele>
        <time>2016-05-05T09:08:42Z</time>
      </trkpt>
      <trkpt lat="46.2183" lon="7.43026">
        <ele>1320</ele>
        <time>2016-05-05T09:08:48Z</time>
      </trkpt>
      <trkpt lat="46.21821" lon="7.43043">
        <ele>1317</ele>
        <time>2016-05-05T09:08:57Z</time>
      </trkpt>
      <trkpt lat="46.21821" lon="7.43046">
        <ele>1317</ele>
        <time>2016-05-05T09:08:58Z</time>
      </trkpt>
      <trkpt lat="46.21804" lon="7.43034">
        <ele>1319</ele>
        <time>2016-05-05T09:09:09Z</time>
      </trkpt>
      <trkpt lat="46.2179" lon="7.43018">
        <ele>1317</ele>
        <time>2016-05-05T09:09:11Z</time>
      </trkpt>
      <trkpt lat="46.21789" lon="7.43049">
        <ele>1317</ele>
        <time>2016-05-05T09:09:30Z</time>
      </trkpt>
      <trkpt lat="46.21787" lon="7.43056">
        <ele>1320</ele>
        <time>2016-05-05T09:09:31Z</time>
      </trkpt>
      <trkpt lat="46.2177" lon="7.43044">
        <ele>1316</ele>
        <time>2016-05-05T09:09:32Z</time>
      </trkpt>
      <trkpt lat="46.21754" lon="7.43041">
        <ele>1317</ele>
        <time>2016-05-05T09:09:42Z</time>
      </trkpt>
      <trkpt lat="46.21751" lon="7.43054">
        <ele>1317</ele>
        <time>2016-05-05T09:09:53Z</time>
      </trkpt>
      <trkpt lat="46.2175" lon="7.43057">
        <ele>1319</ele>
        <time>2016-05-05T09:09:55Z</time>
      </trkpt>
      <trkpt lat="46.21747" lon="7.43058">
        <ele>1318</ele>
        <time>2016-05-05T09:09:57Z</time>
      </trkpt>
      <trkpt lat="46.21743" lon="7.43075">
        <ele>1319</ele>
        <time>2016-05-05T09:10:01Z</time>
      </trkpt>
      <trkpt lat="46.21741" lon="7.43076">
        <ele>1319</ele>
        <time>2016-05-05T09:10:02Z</time>
      </trkpt>
      <trkpt lat="46.21727" lon="7.43062">
        <ele>1316</ele>
        <time>2016-05-05T09:10:07Z</time>
      </trkpt>
      <trkpt lat="46.21729" lon="7.43057">
        <ele>1318</ele>
        <time>2016-05-05T09:10:11Z</time>
      </trkpt>
      <trkpt lat="46.2173" lon="7.43053">
        <ele>1316</ele>
        <time>2016-05-05T09:10:12Z</time>
      </trkpt>
      <trkpt lat="46.21719" lon="7.4303">
        <ele>1324</ele>
        <time>2016-05-05T09:10:20Z</time>
      </trkpt>
      <trkpt lat="46.21709" lon="7.43065">
        <ele>1326</ele>
        <time>2016-05-05T09:10:27Z</time>
      </trkpt>
      <trkpt lat="46.21702" lon="7.43046">
        <ele>1327</ele>
        <time>2016-05-05T09:10:31Z</time>
      </trkpt>
      <trkpt lat="46.21701" lon="7.43043">
        <ele>1328</ele>
        <time>2016-05-05T09:10:32Z</time>
      </trkpt>
      <trkpt lat="46.21699" lon="7.43043">
        <ele>1328</ele>
        <time>2016-05-05T09:10:33Z</time>
      </trkpt>
      <trkpt lat="46.217" lon="7.43035">
        <ele>1331</ele>
        <time>2016-05-05T09:10:34Z</time>
      </trkpt>
      <trkpt lat="46.21682" lon="7.43038">
        <ele>1330</ele>
        <time>2016-05-05T09:10:53Z</time>
      </trkpt>
      <trkpt lat="46.21677" lon="7.43054">
        <ele>1332</ele>
        <time>2016-05-05T09:10:59Z</time>
      </trkpt>
      <trkpt lat="46.21675" lon="7.43053">
        <ele>1332</ele>
        <time>2016-05-05T09:11:00Z</time>
      </trkpt>
      <trkpt lat="46.21668" lon="7.43039">
        <ele>1332</ele>
        <time>2016-05-05T09:11:01Z</time>
      </trkpt>
      <trkpt lat="46.21675" lon="7.43037">
        <ele>1331</ele>
        <time>2016-05-05T09:11:03Z</time>
      </trkpt>
      <trkpt lat="46.21678" lon="7.43039">
        <ele>1331</ele>
        <time>2016-05-05T09:11:04Z</time>
      </trkpt>
      <trkpt lat="46.21674" lon="7.43042">
        <ele>1332</ele>
        <time>2016-05-05T09:11:06Z</time>
      </trkpt>
      <trkpt lat="46.21666" lon="7.43049">
        <ele>1330</ele>
        <time>2016-05-05T09:11:11Z</time>
      </trkpt>
      <trkpt lat="46.21651" lon="7.43055">
        <ele>1327</ele>
        <time>2016-05-05T09:11:19Z</time>
      </trkpt>
      <trkpt lat="46.21637" lon="7.43046">
        <ele>1331</ele>
        <time>2016-05-05T09:11:26Z</time>
      </trkpt>
      <trkpt lat="46.21629" lon="7.43057">
        <ele>1329</ele>
        <time>2016-05-05T09:11:33Z</time>
      </trkpt>
      <trkpt lat="46.21628" lon="7.43056">
        <ele>1329</ele>
        <time>2016-05-05T09:11:35Z</time>
      </trkpt>
      <trkpt lat="46.21627" lon="7.43057">
        <ele>1328</ele>
        <time>2016-05-05T09:11:36Z</time>
      </trkpt>
      <trkpt lat="46.21629" lon="7.4306">
        <ele>1328</ele>
        <time>2016-05-05T09:11:37Z</time>
      </trkpt>
      <trkpt lat="46.21625" lon="7.43062">
        <ele>1329</ele>
        <time>2016-05-05T09:11:39Z</time>
      </trkpt>
      <trkpt lat="46.21623" lon="7.43062">
        <ele>1326</ele>
        <time>2016-05-05T09:11:40Z</time>
      </trkpt>
      <trkpt lat="46.21624" lon="7.43065">
        <ele>1326</ele>
        <time>2016-05-05T09:11:42Z</time>
      </trkpt>
      <trkpt lat="46.21619" lon="7.43063">
        <ele>1325</ele>
        <time>2016-05-05T09:11:44Z</time>
      </trkpt>
      <trkpt lat="46.21602" lon="7.43066">
        <ele>1325</ele>
        <time>2016-05-05T09:12:06Z</time>
      </trkpt>
      <trkpt lat="46.21582" lon="7.43055">
        <ele>1324</ele>
        <time>2016-05-05T09:12:12Z</time>
      </trkpt>
      <trkpt lat="46.21581" lon="7.43054">
        <ele>1323</ele>
        <time>2016-05-05T09:12:13Z</time>
      </trkpt>
      <trkpt lat="46.21582" lon="7.43054">
        <ele>1323</ele>
        <time>2016-05-05T09:12:14Z</time>
      </trkpt>
      <trkpt lat="46.21582" lon="7.43056">
        <ele>1322</ele>
        <time>2016-05-05T09:12:15Z</time>
      </trkpt>
      <trkpt lat="46.21579" lon="7.43059">
        <ele>1322</ele>
        <time>2016-05-05T09:12:18Z</time>
      </trkpt>
      <trkpt lat="46.21575" lon="7.43058">
        <ele>1320</ele>
        <time>2016-05-05T09:12:19Z</time>
      </trkpt>
      <trkpt lat="46.21573" lon="7.43057">
        <ele>1320</ele>
        <time>2016-05-05T09:12:21Z</time>
      </trkpt>
      <trkpt lat="46.21572" lon="7.43049">
        <ele>1317</ele>
        <time>2016-05-05T09:12:22Z</time>
      </trkpt>
      <trkpt lat="46.21569" lon="7.43077">
        <ele>1317</ele>
        <time>2016-05-05T09:12:23Z</time>
      </trkpt>
      <trkpt lat="46.21572" lon="7.43044">
        <ele>1318</ele>
        <time>2016-05-05T09:12:33Z</time>
      </trkpt>
      <trkpt lat="46.21575" lon="7.4305">
        <ele>1319</ele>
        <time>2016-05-05T09:12:34Z</time>
      </trkpt>
      <trkpt lat="46.21574" lon="7.43051">
        <ele>1318</ele>
        <time>2016-05-05T09:12:35Z</time>
      </trkpt>
      <trkpt lat="46.21578" lon="7.4306">
        <ele>1323</ele>
        <time>2016-05-05T09:12:40Z</time>
      </trkpt>
      <trkpt lat="46.21575" lon="7.43051">
        <ele>1325</ele>
        <time>2016-05-05T09:12:42Z</time>
      </trkpt>
      <trkpt lat="46.21576" lon="7.43044">
        <ele>1326</ele>
        <time>2016-05-05T09:12:43Z</time>
      </trkpt>
      <trkpt lat="46.21581" lon="7.43038">
        <ele>1327</ele>
        <time>2016-05-05T09:12:59Z</time>
      </trkpt>
      <trkpt lat="46.2158" lon="7.43036">
        <ele>1329</ele>
        <time>2016-05-05T09:13:00Z</time>
      </trkpt>
      <trkpt lat="46.21572" lon="7.43033">
        <ele>1328</ele>
        <time>2016-05-05T09:13:16Z</time>
      </trkpt>
      <trkpt lat="46.21571" lon="7.43032">
        <ele>1327</ele>
        <time>2016-05-05T09:13:18Z</time>
      </trkpt>
      <trkpt lat="46.21541" lon="7.43018">
        <ele>1326</ele>
        <time>2016-05-05T09:13:58Z</time>
      </trkpt>
      <trkpt lat="46.21521" lon="7.43007">
        <ele>1324</ele>
        <time>2016-05-05T09:14:01Z</time>
      </trkpt>
      <trkpt lat="46.21506" lon="7.42999">
        <ele>1329</ele>
        <time>2016-05-05T09:14:09Z</time>
      </trkpt>
      <trkpt lat="46.21502" lon="7.42998">
        <ele>1332</ele>
        <time>2016-05-05T09:14:11Z</time>
      </trkpt>
      <trkpt lat="46.21497" lon="7.42996">
        <ele>1333</ele>
        <time>2016-05-05T09:14:12Z</time>
      </trkpt>
      <trkpt lat="46.215" lon="7.42997">
        <ele>1330</ele>
        <time>2016-05-05T09:14:13Z</time>
      </trkpt>
      <trkpt lat="46.215" lon="7.43">
        <ele>1327</ele>
        <time>2016-05-05T09:14:14Z</time>
      </trkpt>
      <trkpt lat="46.21507" lon="7.43004">
        <ele>1325</ele>
        <time>2016-05-05T09:14:15Z</time>
      </trkpt>
      <trkpt lat="46.21493" lon="7.42999">
        <ele>1335</ele>
        <time>2016-05-05T09:14:31Z</time>
      </trkpt>
      <trkpt lat="46.21483" lon="7.42995">
        <ele>1335</ele>
        <time>2016-05-05T09:14:32Z</time>
      </trkpt>
      <trkpt lat="46.21483" lon="7.42995">
        <ele>1336</ele>
        <time>2016-05-05T09:14:33Z</time>
      </trkpt>
      <trkpt lat="46.21477" lon="7.42996">
        <ele>1338</ele>
        <time>2016-05-05T09:14:35Z</time>
      </trkpt>
      <trkpt lat="46.21474" lon="7.42991">
        <ele>1335</ele>
        <time>2016-05-05T09:14:36Z</time>
      </trkpt>
      <trkpt lat="46.21474" lon="7.42994">
        <ele>1336</ele>
        <time>2016-05-05T09:14:37Z</time>
      </trkpt>
      <trkpt lat="46.21469" lon="7.42983">
        <ele>1342</ele>
        <time>2016-05-05T09:14:39Z</time>
      </trkpt>
      <trkpt lat="46.21477" lon="7.42979">
        <ele>1347</ele>
        <time>2016-05-05T09:14:42Z</time>
      </trkpt>
      <trkpt lat="46.21477" lon="7.42977">
        <ele>1345</ele>
        <time>2016-05-05T09:14:43Z</time>
      </trkpt>
      <trkpt lat="46.21494" lon="7.42989">
        <ele>1356</ele>
        <time>2016-05-05T09:14:47Z</time>
      </trkpt>
      <trkpt lat="46.21499" lon="7.42989">
        <ele>1357</ele>
        <time>2016-05-05T09:14:48Z</time>
      </trkpt>
      <trkpt lat="46.21497" lon="7.42988">
        <ele>1357</ele>
        <time>2016-05-05T09:14:49Z</time>
      </trkpt>
      <trkpt lat="46.21496" lon="7.42989">
        <ele>1356</ele>
        <time>2016-05-05T09:14:50Z</time>
      </trkpt>
      <trkpt lat="46.21497" lon="7.42989">
        <ele>1356</ele>
        <time>2016-05-05T09:14:52Z</time>
      </trkpt>
      <trkpt lat="46.21497" lon="7.42989">
        <ele>1356</ele>
        <time>2016-05-05T09:14:53Z</time>
      </trkpt>
      <trkpt lat="46.21491" lon="7.42992">
        <ele>1350</ele>
        <time>2016-05-05T09:15:00Z</time>
      </trkpt>
      <trkpt lat="46.21492" lon="7.42992">
        <ele>1351</ele>
        <time>2016-05-05T09:15:16Z</time>
      </trkpt>
      <trkpt lat="46.21494" lon="7.43017">
        <ele>1351</ele>
        <time>2016-05-05T09:15:33Z</time>
      </trkpt>
      <trkpt lat="46.21463" lon="7.42992">
        <ele>1351</ele>
        <time>2016-05-05T09:16:12Z</time>
      </trkpt>
      <trkpt lat="46.21465" lon="7.42996">
        <ele>1353</ele>
        <time>2016-05-05T09:16:13Z</time>
      </trkpt>
      <trkpt lat="46.21473" lon="7.42992">
        <ele>1358</ele>
        <time>2016-05-05T09:16:20Z</time>
      </trkpt>
      <trkpt lat="46.21475" lon="7.42998">
        <ele>1359</ele>
        <time>2016-05-05T09:16:21Z</time>
      </trkpt>
      <trkpt lat="46.21459" lon="7.42994">
        <ele>1368</ele>
        <time>2016-05-05T09:16:58Z</time>
      </trkpt>
      <trkpt lat="46.21456" lon="7.42992">
        <ele>1369</ele>
        <time>2016-05-05T09:16:59Z</time>
      </trkpt>
      <trkpt lat="46.21452" lon="7.42993">
        <ele>1364</ele>
        <time>2016-05-05T09:17:00Z</time>
      </trkpt>
      <trkpt lat="46.21443" lon="7.42988">
        <ele>1363</ele>
        <time>2016-05-05T09:17:06Z</time>
      </trkpt>
      <trkpt lat="46.21426" lon="7.42989">
        <ele>1356</ele>
        <time>2016-05-05T09:17:10Z</time>
      </trkpt>
      <trkpt lat="46.21411" lon="7.42981">
        <ele>1350</ele>
        <time>2016-05-05T09:17:16Z</time>
      </trkpt>
      <trkpt lat="46.21397" lon="7.42969">
        <ele>1346</ele>
        <time>2016-05-05T09:17:32Z</time>
      </trkpt>
      <trkpt lat="46.21399" lon="7.42975">
        <ele>1347</ele>
        <time>2016-05-05T09:17:33Z</time>
      </trkpt>
      <trkpt lat="46.21394" lon="7.42963">
        <ele>1330</ele>
        <time>2016-05-05T09:17:38Z</time>
      </trkpt>
      <trkpt lat="46.21385" lon="7.42968">
        <ele>1340</ele>
        <time>2016-05-05T09:17:42Z</time>
      </trkpt>
      <trkpt lat="46.21385" lon="7.42967">
        <ele>1343</ele>
        <time>2016-05-05T09:17:43Z</time>
      </trkpt>
      <trkpt lat="46.21368" lon="7.4298">
        <ele>1342</ele>
        <time>2016-05-05T09:17:50Z</time>
      </trkpt>
      <trkpt lat="46.21351" lon="7.4299">
        <ele>1350</ele>
        <time>2016-05-05T09:18:05Z</time>
      </trkpt>
      <trkpt lat="46.21342" lon="7.42972">
        <ele>1351</ele>
        <time>2016-05-05T09:18:13Z</time>
      </trkpt>
      <trkpt lat="46.21336" lon="7.43006">
        <ele>1348</ele>
        <time>2016-05-05T09:18:24Z</time>
      </trkpt>
      <trkpt lat="46.2133" lon="7.43013">
        <ele>1351</ele>
        <time>2016-05-05T09:18:32Z</time>
      </trkpt>
      <trkpt lat="46.21328" lon="7.43021">
        <ele>1351</ele>
        <time>2016-05-05T09:18:33Z</time>
      </trkpt>
      <trkpt lat="46.21327" lon="7.43023">
        <ele>1350</ele>
        <time>2016-05-05T09:18:35Z</time>
      </trkpt>
      <trkpt lat="46.21315" lon="7.43028">
        <ele>1347</ele>
        <time>2016-05-05T09:18:50Z</time>
      </trkpt>
      <trkpt lat="46.21314" lon="7.43013">
        <ele>1336</ele>
        <time>2016-05-05T09:19:08Z</time>
      </trkpt>
      <trkpt lat="46.21316" lon="7.43013">
        <ele>1333</ele>
        <time>2016-05-05T09:19:35Z</time>
      </trkpt>
      <trkpt lat="46.21323" lon="7.42995">
        <ele>1339</ele>
        <time>2016-05-05T09:20:30Z</time>
      </trkpt>
      <trkpt lat="46.21314" lon="7.4302">
        <ele>1329</ele>
        <time>2016-05-05T09:23:32Z</time>
      </trkpt>
      <trkpt lat="46.213" lon="7.43027">
        <ele>1331</ele>
        <time>2016-05-05T09:23:37Z</time>
      </trkpt>
      <trkpt lat="46.21297" lon="7.43046">
        <ele>1333</ele>
        <time>2016-05-05T09:23:42Z</time>
      </trkpt>
      <trkpt lat="46.21288" lon="7.43058">
        <ele>1335</ele>
        <time>2016-05-05T09:23:49Z</time>
      </trkpt>
      <trkpt lat="46.21275" lon="7.43072">
        <ele>1340</ele>
        <time>2016-05-05T09:23:58Z</time>
      </trkpt>
      <trkpt lat="46.21259" lon="7.4308">
        <ele>1338</ele>
        <time>2016-05-05T09:24:08Z</time>
      </trkpt>
      <trkpt lat="46.21262" lon="7.431">
        <ele>1342</ele>
        <time>2016-05-05T09:24:21Z</time>
      </trkpt>
      <trkpt lat="46.21251" lon="7.43114">
        <ele>1346</ele>
        <time>2016-05-05T09:24:34Z</time>
      </trkpt>
      <trkpt lat="46.21235" lon="7.43108">
        <ele>1344</ele>
        <time>2016-05-05T09:24:43Z</time>
      </trkpt>
      <trkpt lat="46.21229" lon="7.43129">
        <ele>1346</ele>
        <time>2016-05-05T09:24:50Z</time>
      </trkpt>
      <trkpt lat="46.21223" lon="7.43149">
        <ele>1343</ele>
        <time>2016-05-05T09:24:57Z</time>
      </trkpt>
      <trkpt lat="46.21219" lon="7.43154">
        <ele>1343</ele>
        <time>2016-05-05T09:25:01Z</time>
      </trkpt>
      <trkpt lat="46.21214" lon="7.43144">
        <ele>1345</ele>
        <time>2016-05-05T09:25:08Z</time>
      </trkpt>
      <trkpt lat="46.21209" lon="7.43165">
        <ele>1347</ele>
        <time>2016-05-05T09:25:23Z</time>
      </trkpt>
      <trkpt lat="46.21205" lon="7.43169">
        <ele>1348</ele>
        <time>2016-05-05T09:25:24Z</time>
      </trkpt>
      <trkpt lat="46.21191" lon="7.43175">
        <ele>1353</ele>
        <time>2016-05-05T09:25:46Z</time>
      </trkpt>
      <trkpt lat="46.21189" lon="7.43164">
        <ele>1353</ele>
        <time>2016-05-05T09:25:49Z</time>
      </trkpt>
      <trkpt lat="46.21189" lon="7.43168">
        <ele>1353</ele>
        <time>2016-05-05T09:25:51Z</time>
      </trkpt>
      <trkpt lat="46.21191" lon="7.43165">
        <ele>1364</ele>
        <time>2016-05-05T09:25:53Z</time>
      </trkpt>
      <trkpt lat="46.21173" lon="7.43174">
        <ele>1355</ele>
        <time>2016-05-05T09:26:02Z</time>
      </trkpt>
      <trkpt lat="46.21164" lon="7.43196">
        <ele>1346</ele>
        <time>2016-05-05T09:26:08Z</time>
      </trkpt>
      <trkpt lat="46.21171" lon="7.43206">
        <ele>1347</ele>
        <time>2016-05-05T09:26:13Z</time>
      </trkpt>
      <trkpt lat="46.21168" lon="7.43201">
        <ele>1348</ele>
        <time>2016-05-05T09:26:14Z</time>
      </trkpt>
      <trkpt lat="46.21158" lon="7.43205">
        <ele>1348</ele>
        <time>2016-05-05T09:26:18Z</time>
      </trkpt>
      <trkpt lat="46.21144" lon="7.43214">
        <ele>1345</ele>
        <time>2016-05-05T09:26:23Z</time>
      </trkpt>
      <trkpt lat="46.21133" lon="7.43227">
        <ele>1339</ele>
        <time>2016-05-05T09:26:35Z</time>
      </trkpt>
      <trkpt lat="46.21133" lon="7.4325">
        <ele>1340</ele>
        <time>2016-05-05T09:26:38Z</time>
      </trkpt>
      <trkpt lat="46.21131" lon="7.43254">
        <ele>1342</ele>
        <time>2016-05-05T09:26:39Z</time>
      </trkpt>
      <trkpt lat="46.21137" lon="7.4325">
        <ele>1345</ele>
        <time>2016-05-05T09:26:42Z</time>
      </trkpt>
      <trkpt lat="46.21136" lon="7.43245">
        <ele>1346</ele>
        <time>2016-05-05T09:26:44Z</time>
      </trkpt>
      <trkpt lat="46.21134" lon="7.43239">
        <ele>1348</ele>
        <time>2016-05-05T09:26:45Z</time>
      </trkpt>
      <trkpt lat="46.21133" lon="7.43246">
        <ele>1349</ele>
        <time>2016-05-05T09:26:46Z</time>
      </trkpt>
      <trkpt lat="46.21136" lon="7.43243">
        <ele>1350</ele>
        <time>2016-05-05T09:26:48Z</time>
      </trkpt>
      <trkpt lat="46.21128" lon="7.43245">
        <ele>1347</ele>
        <time>2016-05-05T09:26:59Z</time>
      </trkpt>
      <trkpt lat="46.21126" lon="7.43245">
        <ele>1346</ele>
        <time>2016-05-05T09:27:00Z</time>
      </trkpt>
      <trkpt lat="46.21122" lon="7.4324">
        <ele>1345</ele>
        <time>2016-05-05T09:27:02Z</time>
      </trkpt>
      <trkpt lat="46.21122" lon="7.43239">
        <ele>1345</ele>
        <time>2016-05-05T09:27:03Z</time>
      </trkpt>
      <trkpt lat="46.21111" lon="7.43296">
        <ele>1335</ele>
        <time>2016-05-05T09:28:10Z</time>
      </trkpt>
      <trkpt lat="46.21108" lon="7.433">
        <ele>1336</ele>
        <time>2016-05-05T09:28:11Z</time>
      </trkpt>
      <trkpt lat="46.21096" lon="7.43317">
        <ele>1332</ele>
        <time>2016-05-05T09:28:18Z</time>
      </trkpt>
      <trkpt lat="46.21089" lon="7.43327">
        <ele>1333</ele>
        <time>2016-05-05T09:28:19Z</time>
      </trkpt>
      <trkpt lat="46.21082" lon="7.43348">
        <ele>1334</ele>
        <time>2016-05-05T09:28:22Z</time>
      </trkpt>
      <trkpt lat="46.21078" lon="7.43344">
        <ele>1336</ele>
        <time>2016-05-05T09:28:24Z</time>
      </trkpt>
      <trkpt lat="46.21078" lon="7.43342">
        <ele>1335</ele>
        <time>2016-05-05T09:28:25Z</time>
      </trkpt>
      <trkpt lat="46.21076" lon="7.43345">
        <ele>1332</ele>
        <time>2016-05-05T09:28:26Z</time>
      </trkpt>
      <trkpt lat="46.2106" lon="7.43346">
        <ele>1331</ele>
        <time>2016-05-05T09:28:43Z</time>
      </trkpt>
      <trkpt lat="46.21066" lon="7.43347">
        <ele>1331</ele>
        <time>2016-05-05T09:28:45Z</time>
      </trkpt>
      <trkpt lat="46.21066" lon="7.43355">
        <ele>1333</ele>
        <time>2016-05-05T09:28:46Z</time>
      </trkpt>
      <trkpt lat="46.21067" lon="7.43363">
        <ele>1338</ele>
        <time>2016-05-05T09:28:48Z</time>
      </trkpt>
      <trkpt lat="46.21065" lon="7.43356">
        <ele>1341</ele>
        <time>2016-05-05T09:28:49Z</time>
      </trkpt>
      <trkpt lat="46.21053" lon="7.43369">
        <ele>1352</ele>
        <time>2016-05-05T09:28:58Z</time>
      </trkpt>
      <trkpt lat="46.21053" lon="7.4337">
        <ele>1350</ele>
        <time>2016-05-05T09:28:59Z</time>
      </trkpt>
      <trkpt lat="46.21051" lon="7.43375">
        <ele>1357</ele>
        <time>2016-05-05T09:29:02Z</time>
      </trkpt>
      <trkpt lat="46.21048" lon="7.43367">
        <ele>1360</ele>
        <time>2016-05-05T09:29:08Z</time>
      </trkpt>
      <trkpt lat="46.21044" lon="7.4337">
        <ele>1356</ele>
        <time>2016-05-05T09:29:09Z</time>
      </trkpt>
      <trkpt lat="46.21041" lon="7.43369">
        <ele>1354</ele>
        <time>2016-05-05T09:29:11Z</time>
      </trkpt>
      <trkpt lat="46.21039" lon="7.43373">
        <ele>1353</ele>
        <time>2016-05-05T09:29:13Z</time>
      </trkpt>
      <trkpt lat="46.21023" lon="7.43368">
        <ele>1347</ele>
        <time>2016-05-05T09:29:25Z</time>
      </trkpt>
      <trkpt lat="46.21021" lon="7.43362">
        <ele>1356</ele>
        <time>2016-05-05T09:29:48Z</time>
      </trkpt>
      <trkpt lat="46.21006" lon="7.43371">
        <ele>1363</ele>
        <time>2016-05-05T09:30:08Z</time>
      </trkpt>
      <trkpt lat="46.20992" lon="7.43384">
        <ele>1362</ele>
        <time>2016-05-05T09:30:27Z</time>
      </trkpt>
      <trkpt lat="46.20985" lon="7.43404">
        <ele>1359</ele>
        <time>2016-05-05T09:30:35Z</time>
      </trkpt>
      <trkpt lat="46.2098" lon="7.43394">
        <ele>1360</ele>
        <time>2016-05-05T09:30:37Z</time>
      </trkpt>
      <trkpt lat="46.20978" lon="7.43394">
        <ele>1359</ele>
        <time>2016-05-05T09:30:38Z</time>
      </trkpt>
      <trkpt lat="46.20979" lon="7.43396">
        <ele>1356</ele>
        <time>2016-05-05T09:30:40Z</time>
      </trkpt>
      <trkpt lat="46.20969" lon="7.43411">
        <ele>1358</ele>
        <time>2016-05-05T09:30:57Z</time>
      </trkpt>
      <trkpt lat="46.20962" lon="7.43415">
        <ele>1361</ele>
        <time>2016-05-05T09:31:03Z</time>
      </trkpt>
      <trkpt lat="46.20959" lon="7.43416">
        <ele>1361</ele>
        <time>2016-05-05T09:31:04Z</time>
      </trkpt>
      <trkpt lat="46.20944" lon="7.4342">
        <ele>1361</ele>
        <time>2016-05-05T09:31:13Z</time>
      </trkpt>
      <trkpt lat="46.20945" lon="7.4342">
        <ele>1363</ele>
        <time>2016-05-05T09:31:14Z</time>
      </trkpt>
      <trkpt lat="46.20944" lon="7.43421">
        <ele>1363</ele>
        <time>2016-05-05T09:31:15Z</time>
      </trkpt>
      <trkpt lat="46.20944" lon="7.4342">
        <ele>1362</ele>
        <time>2016-05-05T09:31:16Z</time>
      </trkpt>
      <trkpt lat="46.20943" lon="7.43421">
        <ele>1362</ele>
        <time>2016-05-05T09:31:17Z</time>
      </trkpt>
      <trkpt lat="46.20934" lon="7.43423">
        <ele>1362</ele>
        <time>2016-05-05T09:31:25Z</time>
      </trkpt>
      <trkpt lat="46.20915" lon="7.43437">
        <ele>1360</ele>
        <time>2016-05-05T09:31:40Z</time>
      </trkpt>
      <trkpt lat="46.20913" lon="7.43439">
        <ele>1360</ele>
        <time>2016-05-05T09:31:41Z</time>
      </trkpt>
      <trkpt lat="46.20908" lon="7.43447">
        <ele>1355</ele>
        <time>2016-05-05T09:31:48Z</time>
      </trkpt>
      <trkpt lat="46.20908" lon="7.43448">
        <ele>1354</ele>
        <time>2016-05-05T09:31:52Z</time>
      </trkpt>
      <trkpt lat="46.2089" lon="7.43438">
        <ele>1356</ele>
        <time>2016-05-05T09:32:08Z</time>
      </trkpt>
      <trkpt lat="46.20875" lon="7.43433">
        <ele>1355</ele>
        <time>2016-05-05T09:32:15Z</time>
      </trkpt>
      <trkpt lat="46.20866" lon="7.43415">
        <ele>1356</ele>
        <time>2016-05-05T09:32:22Z</time>
      </trkpt>
      <trkpt lat="46.20849" lon="7.43408">
        <ele>1354</ele>
        <time>2016-05-05T09:32:33Z</time>
      </trkpt>
      <trkpt lat="46.20835" lon="7.43406">
        <ele>1355</ele>
        <time>2016-05-05T09:32:44Z</time>
      </trkpt>
      <trkpt lat="46.20824" lon="7.43392">
        <ele>1353</ele>
        <time>2016-05-05T09:32:49Z</time>
      </trkpt>
      <trkpt lat="46.20829" lon="7.43389">
        <ele>1351</ele>
        <time>2016-05-05T09:32:50Z</time>
      </trkpt>
      <trkpt lat="46.20829" lon="7.43391">
        <ele>1351</ele>
        <time>2016-05-05T09:32:51Z</time>
      </trkpt>
      <trkpt lat="46.20829" lon="7.43388">
        <ele>1351</ele>
        <time>2016-05-05T09:32:54Z</time>
      </trkpt>
      <trkpt lat="46.20828" lon="7.43387">
        <ele>1351</ele>
        <time>2016-05-05T09:32:55Z</time>
      </trkpt>
      <trkpt lat="46.20832" lon="7.43384">
        <ele>1351</ele>
        <time>2016-05-05T09:32:56Z</time>
      </trkpt>
      <trkpt lat="46.2083" lon="7.43385">
        <ele>1351</ele>
        <time>2016-05-05T09:32:57Z</time>
      </trkpt>
      <trkpt lat="46.20828" lon="7.43388">
        <ele>1350</ele>
        <time>2016-05-05T09:32:58Z</time>
      </trkpt>
      <trkpt lat="46.20827" lon="7.43389">
        <ele>1351</ele>
        <time>2016-05-05T09:32:59Z</time>
      </trkpt>
      <trkpt lat="46.20809" lon="7.43381">
        <ele>1341</ele>
        <time>2016-05-05T09:33:30Z</time>
      </trkpt>
      <trkpt lat="46.20811" lon="7.43383">
        <ele>1340</ele>
        <time>2016-05-05T09:33:31Z</time>
      </trkpt>
      <trkpt lat="46.20814" lon="7.43382">
        <ele>1341</ele>
        <time>2016-05-05T09:33:32Z</time>
      </trkpt>
      <trkpt lat="46.20815" lon="7.43386">
        <ele>1341</ele>
        <time>2016-05-05T09:33:33Z</time>
      </trkpt>
      <trkpt lat="46.20799" lon="7.43367">
        <ele>1344</ele>
        <time>2016-05-05T09:33:51Z</time>
      </trkpt>
      <trkpt lat="46.20799" lon="7.43367">
        <ele>1344</ele>
        <time>2016-05-05T09:33:52Z</time>
      </trkpt>
      <trkpt lat="46.208" lon="7.4337">
        <ele>1343</ele>
        <time>2016-05-05T09:33:54Z</time>
      </trkpt>
      <trkpt lat="46.20801" lon="7.43361">
        <ele>1344</ele>
        <time>2016-05-05T09:33:57Z</time>
      </trkpt>
      <trkpt lat="46.20799" lon="7.43367">
        <ele>1344</ele>
        <time>2016-05-05T09:34:02Z</time>
      </trkpt>
      <trkpt lat="46.20796" lon="7.43366">
        <ele>1344</ele>
        <time>2016-05-05T09:34:03Z</time>
      </trkpt>
      <trkpt lat="46.20796" lon="7.43365">
        <ele>1345</ele>
        <time>2016-05-05T09:34:04Z</time>
      </trkpt>
      <trkpt lat="46.20788" lon="7.43347">
        <ele>1344</ele>
        <time>2016-05-05T09:34:09Z</time>
      </trkpt>
      <trkpt lat="46.20785" lon="7.43347">
        <ele>1343</ele>
        <time>2016-05-05T09:34:10Z</time>
      </trkpt>
      <trkpt lat="46.20773" lon="7.43334">
        <ele>1344</ele>
        <time>2016-05-05T09:34:18Z</time>
      </trkpt>
      <trkpt lat="46.20772" lon="7.43337">
        <ele>1345</ele>
        <time>2016-05-05T09:34:19Z</time>
      </trkpt>
      <trkpt lat="46.20773" lon="7.43337">
        <ele>1344</ele>
        <time>2016-05-05T09:34:20Z</time>
      </trkpt>
      <trkpt lat="46.20777" lon="7.43337">
        <ele>1347</ele>
        <time>2016-05-05T09:34:21Z</time>
      </trkpt>
      <trkpt lat="46.20771" lon="7.43325">
        <ele>1348</ele>
        <time>2016-05-05T09:34:25Z</time>
      </trkpt>
      <trkpt lat="46.20758" lon="7.4331">
        <ele>1360</ele>
        <time>2016-05-05T09:34:32Z</time>
      </trkpt>
      <trkpt lat="46.2076" lon="7.43311">
        <ele>1361</ele>
        <time>2016-05-05T09:34:33Z</time>
      </trkpt>
      <trkpt lat="46.20762" lon="7.43313">
        <ele>1359</ele>
        <time>2016-05-05T09:34:34Z</time>
      </trkpt>
      <trkpt lat="46.20758" lon="7.43314">
        <ele>1348</ele>
        <time>2016-05-05T09:34:35Z</time>
      </trkpt>
      <trkpt lat="46.20751" lon="7.43312">
        <ele>1347</ele>
        <time>2016-05-05T09:34:40Z</time>
      </trkpt>
      <trkpt lat="46.2074" lon="7.43298">
        <ele>1343</ele>
        <time>2016-05-05T09:35:00Z</time>
      </trkpt>
      <trkpt lat="46.20739" lon="7.433">
        <ele>1342</ele>
        <time>2016-05-05T09:35:01Z</time>
      </trkpt>
      <trkpt lat="46.20742" lon="7.43297">
        <ele>1342</ele>
        <time>2016-05-05T09:35:05Z</time>
      </trkpt>
      <trkpt lat="46.20739" lon="7.43294">
        <ele>1341</ele>
        <time>2016-05-05T09:35:06Z</time>
      </trkpt>
      <trkpt lat="46.20735" lon="7.43294">
        <ele>1340</ele>
        <time>2016-05-05T09:35:07Z</time>
      </trkpt>
      <trkpt lat="46.2073" lon="7.43299">
        <ele>1350</ele>
        <time>2016-05-05T09:35:12Z</time>
      </trkpt>
      <trkpt lat="46.20729" lon="7.43298">
        <ele>1349</ele>
        <time>2016-05-05T09:35:24Z</time>
      </trkpt>
      <trkpt lat="46.20713" lon="7.43294">
        <ele>1351</ele>
        <time>2016-05-05T09:35:59Z</time>
      </trkpt>
      <trkpt lat="46.20701" lon="7.43291">
        <ele>1348</ele>
        <time>2016-05-05T09:36:00Z</time>
      </trkpt>
      <trkpt lat="46.20703" lon="7.43279">
        <ele>1343</ele>
        <time>2016-05-05T09:36:10Z</time>
      </trkpt>
      <trkpt lat="46.207" lon="7.43267">
        <ele>1338</ele>
        <time>2016-05-05T09:37:52Z</time>
      </trkpt>
      <trkpt lat="46.20701" lon="7.43267">
        <ele>1338</ele>
        <time>2016-05-05T09:38:00Z</time>
      </trkpt>
      <trkpt lat="46.20714" lon="7.43281">
        <ele>1339</ele>
        <time>2016-05-05T09:38:20Z</time>
      </trkpt>
      <trkpt lat="46.20725" lon="7.43296">
        <ele>1334</ele>
        <time>2016-05-05T09:38:26Z</time>
      </trkpt>
      <trkpt lat="46.20725" lon="7.43291">
        <ele>1333</ele>
        <time>2016-05-05T09:38:27Z</time>
      </trkpt>
      <trkpt lat="46.20736" lon="7.43306">
        <ele>1333</ele>
        <time>2016-05-05T09:38:34Z</time>
      </trkpt>
      <trkpt lat="46.20742" lon="7.43303">
        <ele>1329</ele>
        <time>2016-05-05T09:38:36Z</time>
      </trkpt>
      <trkpt lat="46.20745" lon="7.43306">
        <ele>1330</ele>
        <time>2016-05-05T09:38:38Z</time>
      </trkpt>
      <trkpt lat="46.20749" lon="7.43307">
        <ele>1331</ele>
        <time>2016-05-05T09:38:40Z</time>
      </trkpt>
      <trkpt lat="46.20762" lon="7.43317">
        <ele>1334</ele>
        <time>2016-05-05T09:38:47Z</time>
      </trkpt>
      <trkpt lat="46.20771" lon="7.43314">
        <ele>1336</ele>
        <time>2016-05-05T09:38:53Z</time>
      </trkpt>
      <trkpt lat="46.2078" lon="7.43318">
        <ele>1331</ele>
        <time>2016-05-05T09:39:00Z</time>
      </trkpt>
      <trkpt lat="46.20794" lon="7.43329">
        <ele>1328</ele>
        <time>2016-05-05T09:39:11Z</time>
      </trkpt>
      <trkpt lat="46.20807" lon="7.43339">
        <ele>1331</ele>
        <time>2016-05-05T09:39:20Z</time>
      </trkpt>
      <trkpt lat="46.20808" lon="7.43332">
        <ele>1331</ele>
        <time>2016-05-05T09:39:23Z</time>
      </trkpt>
      <trkpt lat="46.20807" lon="7.43326">
        <ele>1330</ele>
        <time>2016-05-05T09:39:26Z</time>
      </trkpt>
      <trkpt lat="46.20799" lon="7.43308">
        <ele>1330</ele>
        <time>2016-05-05T09:39:38Z</time>
      </trkpt>
      <trkpt lat="46.20791" lon="7.43289">
        <ele>1329</ele>
        <time>2016-05-05T09:39:48Z</time>
      </trkpt>
      <trkpt lat="46.20778" lon="7.43277">
        <ele>1326</ele>
        <time>2016-05-05T09:40:02Z</time>
      </trkpt>
      <trkpt lat="46.20779" lon="7.4327">
        <ele>1327</ele>
        <time>2016-05-05T09:40:03Z</time>
      </trkpt>
      <trkpt lat="46.20766" lon="7.43257">
        <ele>1333</ele>
        <time>2016-05-05T09:40:12Z</time>
      </trkpt>
      <trkpt lat="46.20765" lon="7.43256">
        <ele>1333</ele>
        <time>2016-05-05T09:40:13Z</time>
      </trkpt>
      <trkpt lat="46.20762" lon="7.43256">
        <ele>1332</ele>
        <time>2016-05-05T09:40:17Z</time>
      </trkpt>
      <trkpt lat="46.2076" lon="7.43254">
        <ele>1332</ele>
        <time>2016-05-05T09:40:19Z</time>
      </trkpt>
      <trkpt lat="46.20757" lon="7.43254">
        <ele>1331</ele>
        <time>2016-05-05T09:40:22Z</time>
      </trkpt>
      <trkpt lat="46.20754" lon="7.43255">
        <ele>1332</ele>
        <time>2016-05-05T09:40:23Z</time>
      </trkpt>
      <trkpt lat="46.20762" lon="7.43237">
        <ele>1329</ele>
        <time>2016-05-05T09:40:35Z</time>
      </trkpt>
      <trkpt lat="46.20743" lon="7.43226">
        <ele>1332</ele>
        <time>2016-05-05T09:40:46Z</time>
      </trkpt>
      <trkpt lat="46.20726" lon="7.43219">
        <ele>1334</ele>
        <time>2016-05-05T09:40:49Z</time>
      </trkpt>
      <trkpt lat="46.20729" lon="7.43227">
        <ele>1334</ele>
        <time>2016-05-05T09:40:50Z</time>
      </trkpt>
      <trkpt lat="46.20715" lon="7.43235">
        <ele>1331</ele>
        <time>2016-05-05T09:40:58Z</time>
      </trkpt>
      <trkpt lat="46.20718" lon="7.43234">
        <ele>1332</ele>
        <time>2016-05-05T09:40:59Z</time>
      </trkpt>
      <trkpt lat="46.20719" lon="7.43227">
        <ele>1332</ele>
        <time>2016-05-05T09:41:00Z</time>
      </trkpt>
      <trkpt lat="46.20718" lon="7.43229">
        <ele>1332</ele>
        <time>2016-05-05T09:41:01Z</time>
      </trkpt>
      <trkpt lat="46.20724" lon="7.43218">
        <ele>1337</ele>
        <time>2016-05-05T09:41:03Z</time>
      </trkpt>
      <trkpt lat="46.20728" lon="7.43217">
        <ele>1339</ele>
        <time>2016-05-05T09:41:04Z</time>
      </trkpt>
      <trkpt lat="46.20727" lon="7.43216">
        <ele>1341</ele>
        <time>2016-05-05T09:41:05Z</time>
      </trkpt>
      <trkpt lat="46.20714" lon="7.43203">
        <ele>1342</ele>
        <time>2016-05-05T09:41:39Z</time>
      </trkpt>
      <trkpt lat="46.20696" lon="7.43188">
        <ele>1346</ele>
        <time>2016-05-05T09:41:52Z</time>
      </trkpt>
      <trkpt lat="46.20696" lon="7.43192">
        <ele>1346</ele>
        <time>2016-05-05T09:41:54Z</time>
      </trkpt>
      <trkpt lat="46.207" lon="7.43191">
        <ele>1347</ele>
        <time>2016-05-05T09:41:57Z</time>
      </trkpt>
      <trkpt lat="46.20687" lon="7.4319">
        <ele>1347</ele>
        <time>2016-05-05T09:41:58Z</time>
      </trkpt>
      <trkpt lat="46.20686" lon="7.43188">
        <ele>1348</ele>
        <time>2016-05-05T09:42:00Z</time>
      </trkpt>
      <trkpt lat="46.20671" lon="7.43187">
        <ele>1342</ele>
        <time>2016-05-05T09:42:10Z</time>
      </trkpt>
      <trkpt lat="46.20669" lon="7.43188">
        <ele>1346</ele>
        <time>2016-05-05T09:42:11Z</time>
      </trkpt>
      <trkpt lat="46.20671" lon="7.4319">
        <ele>1344</ele>
        <time>2016-05-05T09:42:16Z</time>
      </trkpt>
      <trkpt lat="46.20665" lon="7.43189">
        <ele>1338</ele>
        <time>2016-05-05T09:42:28Z</time>
      </trkpt>
      <trkpt lat="46.20648" lon="7.43184">
        <ele>1333</ele>
        <time>2016-05-05T09:42:35Z</time>
      </trkpt>
      <trkpt lat="46.20635" lon="7.43172">
        <ele>1332</ele>
        <time>2016-05-05T09:42:40Z</time>
      </trkpt>
      <trkpt lat="46.20625" lon="7.43154">
        <ele>1324</ele>
        <time>2016-05-05T09:42:51Z</time>
      </trkpt>
      <trkpt lat="46.2062" lon="7.43152">
        <ele>1318</ele>
        <time>2016-05-05T09:42:56Z</time>
      </trkpt>
      <trkpt lat="46.20618" lon="7.43152">
        <ele>1317</ele>
        <time>2016-05-05T09:42:57Z</time>
      </trkpt>
      <trkpt lat="46.20606" lon="7.4314">
        <ele>1312</ele>
        <time>2016-05-05T09:43:03Z</time>
      </trkpt>
      <trkpt lat="46.206" lon="7.43136">
        <ele>1310</ele>
        <time>2016-05-05T09:43:08Z</time>
      </trkpt>
      <trkpt lat="46.20611" lon="7.43117">
        <ele>1310</ele>
        <time>2016-05-05T09:43:14Z</time>
      </trkpt>
      <trkpt lat="46.20605" lon="7.43117">
        <ele>1310</ele>
        <time>2016-05-05T09:43:17Z</time>
      </trkpt>
      <trkpt lat="46.20605" lon="7.43116">
        <ele>1309</ele>
        <time>2016-05-05T09:43:18Z</time>
      </trkpt>
      <trkpt lat="46.20605" lon="7.43117">
        <ele>1309</ele>
        <time>2016-05-05T09:43:19Z</time>
      </trkpt>
      <trkpt lat="46.20591" lon="7.43107">
        <ele>1312</ele>
        <time>2016-05-05T09:43:26Z</time>
      </trkpt>
      <trkpt lat="46.20588" lon="7.43106">
        <ele>1314</ele>
        <time>2016-05-05T09:43:28Z</time>
      </trkpt>
      <trkpt lat="46.20584" lon="7.43103">
        <ele>1314</ele>
        <time>2016-05-05T09:43:30Z</time>
      </trkpt>
      <trkpt lat="46.20576" lon="7.43098">
        <ele>1315</ele>
        <time>2016-05-05T09:43:34Z</time>
      </trkpt>
      <trkpt lat="46.20577" lon="7.43077">
        <ele>1320</ele>
        <time>2016-05-05T09:43:50Z</time>
      </trkpt>
      <trkpt lat="46.20564" lon="7.43064">
        <ele>1322</ele>
        <time>2016-05-05T09:44:05Z</time>
      </trkpt>
      <trkpt lat="46.20548" lon="7.43055">
        <ele>1321</ele>
        <time>2016-05-05T09:44:12Z</time>
      </trkpt>
      <trkpt lat="46.20553" lon="7.43055">
        <ele>1321</ele>
        <time>2016-05-05T09:44:13Z</time>
      </trkpt>
      <trkpt lat="46.20549" lon="7.43053">
        <ele>1322</ele>
        <time>2016-05-05T09:44:14Z</time>
      </trkpt>
      <trkpt lat="46.2053" lon="7.43062">
        <ele>1327</ele>
        <time>2016-05-05T09:44:18Z</time>
      </trkpt>
      <trkpt lat="46.20534" lon="7.43047">
        <ele>1327</ele>
        <time>2016-05-05T09:44:19Z</time>
      </trkpt>
      <trkpt lat="46.20538" lon="7.43053">
        <ele>1330</ele>
        <time>2016-05-05T09:44:22Z</time>
      </trkpt>
      <trkpt lat="46.20525" lon="7.43057">
        <ele>1320</ele>
        <time>2016-05-05T09:44:27Z</time>
      </trkpt>
      <trkpt lat="46.20513" lon="7.43043">
        <ele>1315</ele>
        <time>2016-05-05T09:44:35Z</time>
      </trkpt>
      <trkpt lat="46.2051" lon="7.43033">
        <ele>1313</ele>
        <time>2016-05-05T09:44:47Z</time>
      </trkpt>
      <trkpt lat="46.20499" lon="7.43017">
        <ele>1310</ele>
        <time>2016-05-05T09:44:57Z</time>
      </trkpt>
      <trkpt lat="46.20485" lon="7.43008">
        <ele>1309</ele>
        <time>2016-05-05T09:45:03Z</time>
      </trkpt>
      <trkpt lat="46.20468" lon="7.43005">
        <ele>1308</ele>
        <time>2016-05-05T09:45:16Z</time>
      </trkpt>
      <trkpt lat="46.20465" lon="7.43006">
        <ele>1306</ele>
        <time>2016-05-05T09:45:19Z</time>
      </trkpt>
      <trkpt lat="46.20462" lon="7.43006">
        <ele>1306</ele>
        <time>2016-05-05T09:45:21Z</time>
      </trkpt>
      <trkpt lat="46.20465" lon="7.43008">
        <ele>1308</ele>
        <time>2016-05-05T09:45:31Z</time>
      </trkpt>
      <trkpt lat="46.20456" lon="7.42989">
        <ele>1305</ele>
        <time>2016-05-05T09:46:10Z</time>
      </trkpt>
      <trkpt lat="46.20451" lon="7.42988">
        <ele>1308</ele>
        <time>2016-05-05T09:46:12Z</time>
      </trkpt>
      <trkpt lat="46.20441" lon="7.42973">
        <ele>1309</ele>
        <time>2016-05-05T09:46:18Z</time>
      </trkpt>
      <trkpt lat="46.20438" lon="7.42974">
        <ele>1307</ele>
        <time>2016-05-05T09:46:19Z</time>
      </trkpt>
      <trkpt lat="46.20434" lon="7.42966">
        <ele>1305</ele>
        <time>2016-05-05T09:46:22Z</time>
      </trkpt>
      <trkpt lat="46.20421" lon="7.42955">
        <ele>1305</ele>
        <time>2016-05-05T09:46:30Z</time>
      </trkpt>
      <trkpt lat="46.20426" lon="7.42943">
        <ele>1308</ele>
        <time>2016-05-05T09:46:35Z</time>
      </trkpt>
      <trkpt lat="46.20423" lon="7.42935">
        <ele>1303</ele>
        <time>2016-05-05T09:46:40Z</time>
      </trkpt>
      <trkpt lat="46.20418" lon="7.42937">
        <ele>1304</ele>
        <time>2016-05-05T09:46:54Z</time>
      </trkpt>
      <trkpt lat="46.20403" lon="7.42927">
        <ele>1298</ele>
        <time>2016-05-05T09:50:56Z</time>
      </trkpt>
      <trkpt lat="46.20389" lon="7.42905">
        <ele>1291</ele>
        <time>2016-05-05T09:50:58Z</time>
      </trkpt>
      <trkpt lat="46.2037" lon="7.42884">
        <ele>1281</ele>
        <time>2016-05-05T09:51:05Z</time>
      </trkpt>
      <trkpt lat="46.20367" lon="7.42885">
        <ele>1280</ele>
        <time>2016-05-05T09:51:06Z</time>
      </trkpt>
      <trkpt lat="46.20363" lon="7.42877">
        <ele>1278</ele>
        <time>2016-05-05T09:51:08Z</time>
      </trkpt>
      <trkpt lat="46.20362" lon="7.42872">
        <ele>1282</ele>
        <time>2016-05-05T09:51:09Z</time>
      </trkpt>
      <trkpt lat="46.2035" lon="7.42859">
        <ele>1283</ele>
        <time>2016-05-05T09:51:15Z</time>
      </trkpt>
      <trkpt lat="46.20346" lon="7.42857">
        <ele>1284</ele>
        <time>2016-05-05T09:51:17Z</time>
      </trkpt>
      <trkpt lat="46.20345" lon="7.42857">
        <ele>1285</ele>
        <time>2016-05-05T09:51:19Z</time>
      </trkpt>
      <trkpt lat="46.20347" lon="7.42858">
        <ele>1281</ele>
        <time>2016-05-05T09:51:21Z</time>
      </trkpt>
      <trkpt lat="46.20346" lon="7.42859">
        <ele>1288</ele>
        <time>2016-05-05T09:51:32Z</time>
      </trkpt>
      <trkpt lat="46.20343" lon="7.42856">
        <ele>1287</ele>
        <time>2016-05-05T09:51:48Z</time>
      </trkpt>
      <trkpt lat="46.20327" lon="7.42843">
        <ele>1277</ele>
        <time>2016-05-05T09:51:56Z</time>
      </trkpt>
      <trkpt lat="46.20325" lon="7.42842">
        <ele>1278</ele>
        <time>2016-05-05T09:51:57Z</time>
      </trkpt>
      <trkpt lat="46.20313" lon="7.42828">
        <ele>1276</ele>
        <time>2016-05-05T09:52:01Z</time>
      </trkpt>
      <trkpt lat="46.20301" lon="7.42815">
        <ele>1275</ele>
        <time>2016-05-05T09:52:06Z</time>
      </trkpt>
      <trkpt lat="46.20297" lon="7.42811">
        <ele>1285</ele>
        <time>2016-05-05T09:52:13Z</time>
      </trkpt>
      <trkpt lat="46.20297" lon="7.4281">
        <ele>1285</ele>
        <time>2016-05-05T09:52:15Z</time>
      </trkpt>
      <trkpt lat="46.20296" lon="7.42807">
        <ele>1286</ele>
        <time>2016-05-05T09:52:18Z</time>
      </trkpt>
      <trkpt lat="46.20294" lon="7.42808">
        <ele>1284</ele>
        <time>2016-05-05T09:52:20Z</time>
      </trkpt>
      <trkpt lat="46.20278" lon="7.428">
        <ele>1275</ele>
        <time>2016-05-05T09:52:36Z</time>
      </trkpt>
      <trkpt lat="46.20272" lon="7.42798">
        <ele>1275</ele>
        <time>2016-05-05T09:52:39Z</time>
      </trkpt>
      <trkpt lat="46.20259" lon="7.42789">
        <ele>1270</ele>
        <time>2016-05-05T09:52:46Z</time>
      </trkpt>
      <trkpt lat="46.20246" lon="7.42777">
        <ele>1273</ele>
        <time>2016-05-05T09:52:54Z</time>
      </trkpt>
      <trkpt lat="46.20231" lon="7.42767">
        <ele>1273</ele>
        <time>2016-05-05T09:53:01Z</time>
      </trkpt>
      <trkpt lat="46.20217" lon="7.42776">
        <ele>1273</ele>
        <time>2016-05-05T09:53:09Z</time>
      </trkpt>
      <trkpt lat="46.20205" lon="7.42763">
        <ele>1273</ele>
        <time>2016-05-05T09:53:16Z</time>
      </trkpt>
      <trkpt lat="46.20194" lon="7.4275">
        <ele>1278</ele>
        <time>2016-05-05T09:53:25Z</time>
      </trkpt>
      <trkpt lat="46.2018" lon="7.42757">
        <ele>1285</ele>
        <time>2016-05-05T09:53:39Z</time>
      </trkpt>
      <trkpt lat="46.20173" lon="7.42751">
        <ele>1288</ele>
        <time>2016-05-05T09:53:47Z</time>
      </trkpt>
      <trkpt lat="46.20173" lon="7.42747">
        <ele>1288</ele>
        <time>2016-05-05T09:53:48Z</time>
      </trkpt>
      <trkpt lat="46.20172" lon="7.42745">
        <ele>1289</ele>
        <time>2016-05-05T09:53:50Z</time>
      </trkpt>
      <trkpt lat="46.20167" lon="7.42743">
        <ele>1294</ele>
        <time>2016-05-05T09:53:59Z</time>
      </trkpt>
      <trkpt lat="46.20155" lon="7.4273">
        <ele>1295</ele>
        <time>2016-05-05T09:54:09Z</time>
      </trkpt>
      <trkpt lat="46.20141" lon="7.42722">
        <ele>1294</ele>
        <time>2016-05-05T09:54:17Z</time>
      </trkpt>
      <trkpt lat="46.20137" lon="7.42719">
        <ele>1297</ele>
        <time>2016-05-05T09:54:21Z</time>
      </trkpt>
      <trkpt lat="46.20123" lon="7.42726">
        <ele>1296</ele>
        <time>2016-05-05T09:54:34Z</time>
      </trkpt>
      <trkpt lat="46.20108" lon="7.42724">
        <ele>1297</ele>
        <time>2016-05-05T09:54:48Z</time>
      </trkpt>
      <trkpt lat="46.20109" lon="7.42724">
        <ele>1298</ele>
        <time>2016-05-05T09:54:51Z</time>
      </trkpt>
      <trkpt lat="46.20108" lon="7.42722">
        <ele>1297</ele>
        <time>2016-05-05T09:54:52Z</time>
      </trkpt>
      <trkpt lat="46.20093" lon="7.42722">
        <ele>1297</ele>
        <time>2016-05-05T09:55:03Z</time>
      </trkpt>
      <trkpt lat="46.20084" lon="7.42739">
        <ele>1295</ele>
        <time>2016-05-05T09:55:19Z</time>
      </trkpt>
      <trkpt lat="46.20066" lon="7.4274">
        <ele>1285</ele>
        <time>2016-05-05T09:55:22Z</time>
      </trkpt>
      <trkpt lat="46.20065" lon="7.4274">
        <ele>1287</ele>
        <time>2016-05-05T09:55:23Z</time>
      </trkpt>
      <trkpt lat="46.20052" lon="7.4275">
        <ele>1289</ele>
        <time>2016-05-05T09:55:36Z</time>
      </trkpt>
      <trkpt lat="46.2004" lon="7.42763">
        <ele>1294</ele>
        <time>2016-05-05T09:56:00Z</time>
      </trkpt>
      <trkpt lat="46.20044" lon="7.42772">
        <ele>1293</ele>
        <time>2016-05-05T09:56:03Z</time>
      </trkpt>
      <trkpt lat="46.20042" lon="7.42771">
        <ele>1294</ele>
        <time>2016-05-05T09:56:04Z</time>
      </trkpt>
      <trkpt lat="46.20038" lon="7.42782">
        <ele>1288</ele>
        <time>2016-05-05T09:56:12Z</time>
      </trkpt>
      <trkpt lat="46.20038" lon="7.42782">
        <ele>1288</ele>
        <time>2016-05-05T09:56:13Z</time>
      </trkpt>
      <trkpt lat="46.20022" lon="7.42775">
        <ele>1283</ele>
        <time>2016-05-05T09:56:26Z</time>
      </trkpt>
      <trkpt lat="46.20008" lon="7.42768">
        <ele>1281</ele>
        <time>2016-05-05T09:56:56Z</time>
      </trkpt>
      <trkpt lat="46.20009" lon="7.42771">
        <ele>1281</ele>
        <time>2016-05-05T09:56:57Z</time>
      </trkpt>
      <trkpt lat="46.19999" lon="7.4276">
        <ele>1277</ele>
        <time>2016-05-05T09:57:03Z</time>
      </trkpt>
      <trkpt lat="46.2" lon="7.42753">
        <ele>1284</ele>
        <time>2016-05-05T09:57:06Z</time>
      </trkpt>
      <trkpt lat="46.19999" lon="7.42752">
        <ele>1285</ele>
        <time>2016-05-05T09:57:09Z</time>
      </trkpt>
      <trkpt lat="46.19991" lon="7.42744">
        <ele>1301</ele>
        <time>2016-05-05T09:57:32Z</time>
      </trkpt>
      <trkpt lat="46.19976" lon="7.42735">
        <ele>1300</ele>
        <time>2016-05-05T09:57:45Z</time>
      </trkpt>
      <trkpt lat="46.19963" lon="7.42724">
        <ele>1295</ele>
        <time>2016-05-05T09:57:55Z</time>
      </trkpt>
      <trkpt lat="46.19964" lon="7.42725">
        <ele>1296</ele>
        <time>2016-05-05T09:57:56Z</time>
      </trkpt>
      <trkpt lat="46.19962" lon="7.42722">
        <ele>1297</ele>
        <time>2016-05-05T09:57:58Z</time>
      </trkpt>
      <trkpt lat="46.19955" lon="7.42731">
        <ele>1294</ele>
        <time>2016-05-05T09:58:10Z</time>
      </trkpt>
      <trkpt lat="46.19955" lon="7.42725">
        <ele>1299</ele>
        <time>2016-05-05T09:59:18Z</time>
      </trkpt>
      <trkpt lat="46.19956" lon="7.42721">
        <ele>1299</ele>
        <time>2016-05-05T09:59:22Z</time>
      </trkpt>
      <trkpt lat="46.19937" lon="7.42714">
        <ele>1296</ele>
        <time>2016-05-05T10:02:21Z</time>
      </trkpt>
      <trkpt lat="46.1992" lon="7.42708">
        <ele>1293</ele>
        <time>2016-05-05T10:02:25Z</time>
      </trkpt>
      <trkpt lat="46.19909" lon="7.42695">
        <ele>1296</ele>
        <time>2016-05-05T10:02:30Z</time>
      </trkpt>
      <trkpt lat="46.19894" lon="7.42683">
        <ele>1296</ele>
        <time>2016-05-05T10:02:38Z</time>
      </trkpt>
      <trkpt lat="46.19884" lon="7.42667">
        <ele>1297</ele>
        <time>2016-05-05T10:02:48Z</time>
      </trkpt>
      <trkpt lat="46.1988" lon="7.42671">
        <ele>1300</ele>
        <time>2016-05-05T10:02:53Z</time>
      </trkpt>
      <trkpt lat="46.19879" lon="7.42671">
        <ele>1300</ele>
        <time>2016-05-05T10:02:54Z</time>
      </trkpt>
      <trkpt lat="46.19867" lon="7.42684">
        <ele>1298</ele>
        <time>2016-05-05T10:03:08Z</time>
      </trkpt>
      <trkpt lat="46.19866" lon="7.42686">
        <ele>1297</ele>
        <time>2016-05-05T10:03:12Z</time>
      </trkpt>
      <trkpt lat="46.19866" lon="7.42687">
        <ele>1297</ele>
        <time>2016-05-05T10:03:18Z</time>
      </trkpt>
      <trkpt lat="46.19872" lon="7.42673">
        <ele>1287</ele>
        <time>2016-05-05T10:16:27Z</time>
      </trkpt>
      <trkpt lat="46.19869" lon="7.4264">
        <ele>1256</ele>
        <time>2016-05-05T10:26:58Z</time>
      </trkpt>
      <trkpt lat="46.19874" lon="7.42672">
        <ele>1285</ele>
        <time>2016-05-05T10:26:59Z</time>
      </trkpt>
      <trkpt lat="46.19874" lon="7.42672">
        <ele>1284</ele>
        <time>2016-05-05T10:27:37Z</time>
      </trkpt>
      <trkpt lat="46.19874" lon="7.42672">
        <ele>1284</ele>
        <time>2016-05-05T10:27:38Z</time>
      </trkpt>
      <trkpt lat="46.19874" lon="7.42672">
        <ele>1284</ele>
        <time>2016-05-05T10:27:39Z</time>
      </trkpt>
      <trkpt lat="46.19874" lon="7.42672">
        <ele>1284</ele>
        <time>2016-05-05T10:27:40Z</time>
      </trkpt>
      <trkpt lat="46.19874" lon="7.42672">
        <ele>1284</ele>
        <time>2016-05-05T10:27:41Z</time>
      </trkpt>
      <trkpt lat="46.19874" lon="7.42672">
        <ele>1284</ele>
        <time>2016-05-05T10:27:42Z</time>
      </trkpt>
      <trkpt lat="46.19874" lon="7.42672">
        <ele>1284</ele>
        <time>2016-05-05T10:27:43Z</time>
      </trkpt>
      <trkpt lat="46.19874" lon="7.42672">
        <ele>1284</ele>
        <time>2016-05-05T10:27:44Z</time>
      </trkpt>
      <trkpt lat="46.19874" lon="7.42671">
        <ele>1284</ele>
        <time>2016-05-05T10:27:47Z</time>
      </trkpt>
      <trkpt lat="46.19874" lon="7.42671">
        <ele>1284</ele>
        <time>2016-05-05T10:27:48Z</time>
      </trkpt>
      <trkpt lat="46.19874" lon="7.42671">
        <ele>1284</ele>
        <time>2016-05-05T10:27:50Z</time>
      </trkpt>
      <trkpt lat="46.19874" lon="7.42671">
        <ele>1284</ele>
        <time>2016-05-05T10:27:52Z</time>
      </trkpt>
      <trkpt lat="46.19874" lon="7.42671">
        <ele>1284</ele>
        <time>2016-05-05T10:27:55Z</time>
      </trkpt>
      <trkpt lat="46.19874" lon="7.42671">
        <ele>1284</ele>
        <time>2016-05-05T10:28:00Z</time>
      </trkpt>
      <trkpt lat="46.19874" lon="7.42671">
        <ele>1284</ele>
        <time>2016-05-05T10:28:08Z</time>
      </trkpt>
      <trkpt lat="46.19874" lon="7.42671">
        <ele>1284</ele>
        <time>2016-05-05T10:28:36Z</time>
      </trkpt>
      <trkpt lat="46.19874" lon="7.42671">
        <ele>1283</ele>
        <time>2016-05-05T10:29:30Z</time>
      </trkpt>
      <trkpt lat="46.19874" lon="7.42671">
        <ele>1283</ele>
        <time>2016-05-05T10:29:33Z</time>
      </trkpt>
      <trkpt lat="46.19874" lon="7.42671">
        <ele>1283</ele>
        <time>2016-05-05T10:29:43Z</time>
      </trkpt>
      <trkpt lat="46.19863" lon="7.42689">
        <ele>1293</ele>
        <time>2016-05-05T10:45:07Z</time>
      </trkpt>
      <trkpt lat="46.19861" lon="7.42711">
        <ele>1296</ele>
        <time>2016-05-05T10:45:24Z</time>
      </trkpt>
      <trkpt lat="46.19854" lon="7.42729">
        <ele>1292</ele>
        <time>2016-05-05T10:45:35Z</time>
      </trkpt>
      <trkpt lat="46.19853" lon="7.42734">
        <ele>1291</ele>
        <time>2016-05-05T10:45:38Z</time>
      </trkpt>
      <trkpt lat="46.19861" lon="7.42752">
        <ele>1291</ele>
        <time>2016-05-05T10:46:05Z</time>
      </trkpt>
      <trkpt lat="46.19862" lon="7.42775">
        <ele>1291</ele>
        <time>2016-05-05T10:46:31Z</time>
      </trkpt>
      <trkpt lat="46.19868" lon="7.42796">
        <ele>1289</ele>
        <time>2016-05-05T10:46:50Z</time>
      </trkpt>
      <trkpt lat="46.19853" lon="7.42799">
        <ele>1297</ele>
        <time>2016-05-05T10:47:07Z</time>
      </trkpt>
      <trkpt lat="46.19854" lon="7.42804">
        <ele>1295</ele>
        <time>2016-05-05T10:47:10Z</time>
      </trkpt>
      <trkpt lat="46.19851" lon="7.42802">
        <ele>1296</ele>
        <time>2016-05-05T10:47:11Z</time>
      </trkpt>
      <trkpt lat="46.19849" lon="7.42802">
        <ele>1297</ele>
        <time>2016-05-05T10:47:14Z</time>
      </trkpt>
      <trkpt lat="46.19837" lon="7.42816">
        <ele>1303</ele>
        <time>2016-05-05T10:47:32Z</time>
      </trkpt>
      <trkpt lat="46.19833" lon="7.42816">
        <ele>1305</ele>
        <time>2016-05-05T10:47:39Z</time>
      </trkpt>
      <trkpt lat="46.19813" lon="7.42833">
        <ele>1309</ele>
        <time>2016-05-05T10:49:44Z</time>
      </trkpt>
      <trkpt lat="46.19796" lon="7.42846">
        <ele>1315</ele>
        <time>2016-05-05T10:49:49Z</time>
      </trkpt>
      <trkpt lat="46.19794" lon="7.42851">
        <ele>1312</ele>
        <time>2016-05-05T10:49:50Z</time>
      </trkpt>
      <trkpt lat="46.19781" lon="7.42864">
        <ele>1311</ele>
        <time>2016-05-05T10:49:59Z</time>
      </trkpt>
      <trkpt lat="46.1978" lon="7.42867">
        <ele>1311</ele>
        <time>2016-05-05T10:50:00Z</time>
      </trkpt>
      <trkpt lat="46.19782" lon="7.42868">
        <ele>1310</ele>
        <time>2016-05-05T10:50:01Z</time>
      </trkpt>
      <trkpt lat="46.1977" lon="7.42856">
        <ele>1322</ele>
        <time>2016-05-05T10:50:17Z</time>
      </trkpt>
      <trkpt lat="46.1977" lon="7.42856">
        <ele>1324</ele>
        <time>2016-05-05T10:50:18Z</time>
      </trkpt>
      <trkpt lat="46.19763" lon="7.42852">
        <ele>1329</ele>
        <time>2016-05-05T10:50:26Z</time>
      </trkpt>
      <trkpt lat="46.19751" lon="7.42864">
        <ele>1337</ele>
        <time>2016-05-05T10:50:39Z</time>
      </trkpt>
      <trkpt lat="46.19748" lon="7.4285">
        <ele>1340</ele>
        <time>2016-05-05T10:50:53Z</time>
      </trkpt>
      <trkpt lat="46.19748" lon="7.42851">
        <ele>1340</ele>
        <time>2016-05-05T10:50:54Z</time>
      </trkpt>
      <trkpt lat="46.19751" lon="7.42855">
        <ele>1340</ele>
        <time>2016-05-05T10:50:55Z</time>
      </trkpt>
      <trkpt lat="46.19747" lon="7.42865">
        <ele>1341</ele>
        <time>2016-05-05T10:51:06Z</time>
      </trkpt>
      <trkpt lat="46.19726" lon="7.42846">
        <ele>1356</ele>
        <time>2016-05-05T10:51:22Z</time>
      </trkpt>
      <trkpt lat="46.19726" lon="7.42841">
        <ele>1352</ele>
        <time>2016-05-05T10:51:25Z</time>
      </trkpt>
      <trkpt lat="46.19727" lon="7.42839">
        <ele>1352</ele>
        <time>2016-05-05T10:51:26Z</time>
      </trkpt>
      <trkpt lat="46.19726" lon="7.42837">
        <ele>1349</ele>
        <time>2016-05-05T10:51:30Z</time>
      </trkpt>
      <trkpt lat="46.19724" lon="7.42839">
        <ele>1347</ele>
        <time>2016-05-05T10:51:33Z</time>
      </trkpt>
      <trkpt lat="46.19723" lon="7.4284">
        <ele>1346</ele>
        <time>2016-05-05T10:51:37Z</time>
      </trkpt>
      <trkpt lat="46.19719" lon="7.42845">
        <ele>1341</ele>
        <time>2016-05-05T10:53:59Z</time>
      </trkpt>
      <trkpt lat="46.19703" lon="7.42856">
        <ele>1340</ele>
        <time>2016-05-05T10:55:15Z</time>
      </trkpt>
      <trkpt lat="46.19687" lon="7.42849">
        <ele>1344</ele>
        <time>2016-05-05T10:55:24Z</time>
      </trkpt>
      <trkpt lat="46.1968" lon="7.42852">
        <ele>1348</ele>
        <time>2016-05-05T10:55:28Z</time>
      </trkpt>
      <trkpt lat="46.19665" lon="7.42848">
        <ele>1353</ele>
        <time>2016-05-05T10:55:45Z</time>
      </trkpt>
      <trkpt lat="46.19666" lon="7.42827">
        <ele>1361</ele>
        <time>2016-05-05T10:55:47Z</time>
      </trkpt>
      <trkpt lat="46.19656" lon="7.42842">
        <ele>1365</ele>
        <time>2016-05-05T10:55:55Z</time>
      </trkpt>
      <trkpt lat="46.19646" lon="7.42838">
        <ele>1371</ele>
        <time>2016-05-05T10:56:02Z</time>
      </trkpt>
      <trkpt lat="46.19647" lon="7.42836">
        <ele>1371</ele>
        <time>2016-05-05T10:56:03Z</time>
      </trkpt>
      <trkpt lat="46.19639" lon="7.42837">
        <ele>1371</ele>
        <time>2016-05-05T10:56:08Z</time>
      </trkpt>
      <trkpt lat="46.19624" lon="7.4284">
        <ele>1365</ele>
        <time>2016-05-05T10:56:16Z</time>
      </trkpt>
      <trkpt lat="46.19614" lon="7.42859">
        <ele>1370</ele>
        <time>2016-05-05T10:56:33Z</time>
      </trkpt>
      <trkpt lat="46.19604" lon="7.42865">
        <ele>1374</ele>
        <time>2016-05-05T10:56:45Z</time>
      </trkpt>
      <trkpt lat="46.19589" lon="7.42866">
        <ele>1370</ele>
        <time>2016-05-05T10:56:52Z</time>
      </trkpt>
      <trkpt lat="46.19586" lon="7.4289">
        <ele>1366</ele>
        <time>2016-05-05T10:57:09Z</time>
      </trkpt>
      <trkpt lat="46.19581" lon="7.4291">
        <ele>1359</ele>
        <time>2016-05-05T10:57:22Z</time>
      </trkpt>
      <trkpt lat="46.19571" lon="7.42927">
        <ele>1353</ele>
        <time>2016-05-05T10:57:35Z</time>
      </trkpt>
      <trkpt lat="46.19563" lon="7.42946">
        <ele>1361</ele>
        <time>2016-05-05T10:57:49Z</time>
      </trkpt>
      <trkpt lat="46.19557" lon="7.42966">
        <ele>1367</ele>
        <time>2016-05-05T10:58:01Z</time>
      </trkpt>
      <trkpt lat="46.19547" lon="7.42981">
        <ele>1367</ele>
        <time>2016-05-05T10:58:11Z</time>
      </trkpt>
      <trkpt lat="46.19549" lon="7.42979">
        <ele>1367</ele>
        <time>2016-05-05T10:58:13Z</time>
      </trkpt>
      <trkpt lat="46.1955" lon="7.42979">
        <ele>1367</ele>
        <time>2016-05-05T10:58:14Z</time>
      </trkpt>
      <trkpt lat="46.19538" lon="7.42993">
        <ele>1368</ele>
        <time>2016-05-05T10:58:33Z</time>
      </trkpt>
      <trkpt lat="46.19537" lon="7.42993">
        <ele>1367</ele>
        <time>2016-05-05T10:58:36Z</time>
      </trkpt>
      <trkpt lat="46.19534" lon="7.43015">
        <ele>1362</ele>
        <time>2016-05-05T10:59:18Z</time>
      </trkpt>
      <trkpt lat="46.19533" lon="7.43019">
        <ele>1363</ele>
        <time>2016-05-05T10:59:20Z</time>
      </trkpt>
      <trkpt lat="46.19515" lon="7.43027">
        <ele>1353</ele>
        <time>2016-05-05T10:59:25Z</time>
      </trkpt>
      <trkpt lat="46.195" lon="7.4302">
        <ele>1344</ele>
        <time>2016-05-05T10:59:52Z</time>
      </trkpt>
      <trkpt lat="46.19488" lon="7.43035">
        <ele>1342</ele>
        <time>2016-05-05T11:01:57Z</time>
      </trkpt>
      <trkpt lat="46.19487" lon="7.43037">
        <ele>1343</ele>
        <time>2016-05-05T11:01:58Z</time>
      </trkpt>
      <trkpt lat="46.19484" lon="7.43062">
        <ele>1350</ele>
        <time>2016-05-05T11:02:09Z</time>
      </trkpt>
      <trkpt lat="46.19484" lon="7.43062">
        <ele>1349</ele>
        <time>2016-05-05T11:02:10Z</time>
      </trkpt>
      <trkpt lat="46.19483" lon="7.43083">
        <ele>1356</ele>
        <time>2016-05-05T11:02:26Z</time>
      </trkpt>
      <trkpt lat="46.19484" lon="7.43092">
        <ele>1357</ele>
        <time>2016-05-05T11:02:30Z</time>
      </trkpt>
      <trkpt lat="46.19495" lon="7.43113">
        <ele>1358</ele>
        <time>2016-05-05T11:03:28Z</time>
      </trkpt>
      <trkpt lat="46.19481" lon="7.43108">
        <ele>1358</ele>
        <time>2016-05-05T11:03:29Z</time>
      </trkpt>
      <trkpt lat="46.19482" lon="7.43108">
        <ele>1358</ele>
        <time>2016-05-05T11:03:43Z</time>
      </trkpt>
      <trkpt lat="46.19482" lon="7.43108">
        <ele>1358</ele>
        <time>2016-05-05T11:03:44Z</time>
      </trkpt>
      <trkpt lat="46.19482" lon="7.43108">
        <ele>1358</ele>
        <time>2016-05-05T11:03:45Z</time>
      </trkpt>
      <trkpt lat="46.19482" lon="7.43108">
        <ele>1358</ele>
        <time>2016-05-05T11:03:47Z</time>
      </trkpt>
      <trkpt lat="46.19482" lon="7.43108">
        <ele>1358</ele>
        <time>2016-05-05T11:03:48Z</time>
      </trkpt>
      <trkpt lat="46.19482" lon="7.43108">
        <ele>1358</ele>
        <time>2016-05-05T11:03:49Z</time>
      </trkpt>
      <trkpt lat="46.19482" lon="7.43108">
        <ele>1358</ele>
        <time>2016-05-05T11:04:39Z</time>
      </trkpt>
      <trkpt lat="46.19482" lon="7.43108">
        <ele>1358</ele>
        <time>2016-05-05T11:04:44Z</time>
      </trkpt>
      <trkpt lat="46.19482" lon="7.43108">
        <ele>1358</ele>
        <time>2016-05-05T11:04:45Z</time>
      </trkpt>
      <trkpt lat="46.19482" lon="7.43108">
        <ele>1358</ele>
        <time>2016-05-05T11:04:46Z</time>
      </trkpt>
      <trkpt lat="46.19482" lon="7.43108">
        <ele>1358</ele>
        <time>2016-05-05T11:04:48Z</time>
      </trkpt>
      <trkpt lat="46.1948" lon="7.43106">
        <ele>1350</ele>
        <time>2016-05-05T11:07:18Z</time>
      </trkpt>
      <trkpt lat="46.19481" lon="7.43108">
        <ele>1352</ele>
        <time>2016-05-05T11:07:19Z</time>
      </trkpt>
      <trkpt lat="46.19481" lon="7.43105">
        <ele>1352</ele>
        <time>2016-05-05T11:07:21Z</time>
      </trkpt>
      <trkpt lat="46.19496" lon="7.43104">
        <ele>1363</ele>
        <time>2016-05-05T11:07:40Z</time>
      </trkpt>
      <trkpt lat="46.195" lon="7.4314">
        <ele>1356</ele>
        <time>2016-05-05T11:07:48Z</time>
      </trkpt>
      <trkpt lat="46.19499" lon="7.43149">
        <ele>1352</ele>
        <time>2016-05-05T11:07:53Z</time>
      </trkpt>
      <trkpt lat="46.19498" lon="7.43155">
        <ele>1348</ele>
        <time>2016-05-05T11:07:56Z</time>
      </trkpt>
      <trkpt lat="46.19497" lon="7.4315">
        <ele>1351</ele>
        <time>2016-05-05T11:08:15Z</time>
      </trkpt>
      <trkpt lat="46.195" lon="7.43148">
        <ele>1350</ele>
        <time>2016-05-05T11:08:18Z</time>
      </trkpt>
      <trkpt lat="46.19511" lon="7.43187">
        <ele>1387</ele>
        <time>2016-05-05T11:09:13Z</time>
      </trkpt>
      <trkpt lat="46.19513" lon="7.43179">
        <ele>1389</ele>
        <time>2016-05-05T11:09:14Z</time>
      </trkpt>
      <trkpt lat="46.19507" lon="7.43191">
        <ele>1381</ele>
        <time>2016-05-05T11:09:15Z</time>
      </trkpt>
      <trkpt lat="46.19504" lon="7.43187">
        <ele>1378</ele>
        <time>2016-05-05T11:09:16Z</time>
      </trkpt>
      <trkpt lat="46.19502" lon="7.43185">
        <ele>1380</ele>
        <time>2016-05-05T11:09:17Z</time>
      </trkpt>
      <trkpt lat="46.19502" lon="7.43174">
        <ele>1371</ele>
        <time>2016-05-05T11:09:18Z</time>
      </trkpt>
      <trkpt lat="46.19497" lon="7.43155">
        <ele>1342</ele>
        <time>2016-05-05T11:09:19Z</time>
      </trkpt>
      <trkpt lat="46.19497" lon="7.43161">
        <ele>1341</ele>
        <time>2016-05-05T11:09:20Z</time>
      </trkpt>
      <trkpt lat="46.19482" lon="7.43153">
        <ele>1329</ele>
        <time>2016-05-05T11:09:26Z</time>
      </trkpt>
      <trkpt lat="46.19473" lon="7.43159">
        <ele>1329</ele>
        <time>2016-05-05T11:09:34Z</time>
      </trkpt>
      <trkpt lat="46.19469" lon="7.43153">
        <ele>1324</ele>
        <time>2016-05-05T11:09:37Z</time>
      </trkpt>
      <trkpt lat="46.19462" lon="7.43136">
        <ele>1308</ele>
        <time>2016-05-05T11:09:42Z</time>
      </trkpt>
      <trkpt lat="46.19462" lon="7.43135">
        <ele>1309</ele>
        <time>2016-05-05T11:09:43Z</time>
      </trkpt>
      <trkpt lat="46.19478" lon="7.43131">
        <ele>1327</ele>
        <time>2016-05-05T11:09:54Z</time>
      </trkpt>
      <trkpt lat="46.19479" lon="7.4313">
        <ele>1327</ele>
        <time>2016-05-05T11:09:55Z</time>
      </trkpt>
      <trkpt lat="46.1947" lon="7.43154">
        <ele>1333</ele>
        <time>2016-05-05T11:10:02Z</time>
      </trkpt>
      <trkpt lat="46.19474" lon="7.43152">
        <ele>1332</ele>
        <time>2016-05-05T11:10:03Z</time>
      </trkpt>
      <trkpt lat="46.19489" lon="7.43141">
        <ele>1334</ele>
        <time>2016-05-05T11:10:44Z</time>
      </trkpt>
      <trkpt lat="46.19496" lon="7.43122">
        <ele>1339</ele>
        <time>2016-05-05T11:10:56Z</time>
      </trkpt>
      <trkpt lat="46.195" lon="7.43118">
        <ele>1334</ele>
        <time>2016-05-05T11:10:59Z</time>
      </trkpt>
      <trkpt lat="46.19518" lon="7.43121">
        <ele>1341</ele>
        <time>2016-05-05T11:11:14Z</time>
      </trkpt>
      <trkpt lat="46.19527" lon="7.43123">
        <ele>1340</ele>
        <time>2016-05-05T11:11:32Z</time>
      </trkpt>
      <trkpt lat="46.1953" lon="7.43144">
        <ele>1341</ele>
        <time>2016-05-05T11:11:45Z</time>
      </trkpt>
      <trkpt lat="46.19529" lon="7.43142">
        <ele>1349</ele>
        <time>2016-05-05T11:11:53Z</time>
      </trkpt>
      <trkpt lat="46.19527" lon="7.43152">
        <ele>1347</ele>
        <time>2016-05-05T11:11:57Z</time>
      </trkpt>
      <trkpt lat="46.19526" lon="7.43154">
        <ele>1347</ele>
        <time>2016-05-05T11:11:59Z</time>
      </trkpt>
      <trkpt lat="46.19541" lon="7.43153">
        <ele>1351</ele>
        <time>2016-05-05T11:13:08Z</time>
      </trkpt>
      <trkpt lat="46.19551" lon="7.43139">
        <ele>1356</ele>
        <time>2016-05-05T11:13:22Z</time>
      </trkpt>
      <trkpt lat="46.1955" lon="7.43136">
        <ele>1356</ele>
        <time>2016-05-05T11:13:24Z</time>
      </trkpt>
      <trkpt lat="46.1956" lon="7.4312">
        <ele>1358</ele>
        <time>2016-05-05T11:14:07Z</time>
      </trkpt>
      <trkpt lat="46.19564" lon="7.43099">
        <ele>1353</ele>
        <time>2016-05-05T11:14:19Z</time>
      </trkpt>
      <trkpt lat="46.19565" lon="7.43091">
        <ele>1351</ele>
        <time>2016-05-05T11:14:23Z</time>
      </trkpt>
      <trkpt lat="46.1958" lon="7.43083">
        <ele>1350</ele>
        <time>2016-05-05T11:14:38Z</time>
      </trkpt>
      <trkpt lat="46.19598" lon="7.43094">
        <ele>1361</ele>
        <time>2016-05-05T11:15:02Z</time>
      </trkpt>
      <trkpt lat="46.19595" lon="7.43084">
        <ele>1361</ele>
        <time>2016-05-05T11:15:05Z</time>
      </trkpt>
      <trkpt lat="46.19595" lon="7.43085">
        <ele>1361</ele>
        <time>2016-05-05T11:15:06Z</time>
      </trkpt>
      <trkpt lat="46.19593" lon="7.43079">
        <ele>1364</ele>
        <time>2016-05-05T11:15:07Z</time>
      </trkpt>
      <trkpt lat="46.19591" lon="7.43071">
        <ele>1367</ele>
        <time>2016-05-05T11:15:08Z</time>
      </trkpt>
      <trkpt lat="46.1959" lon="7.43074">
        <ele>1367</ele>
        <time>2016-05-05T11:15:10Z</time>
      </trkpt>
      <trkpt lat="46.1959" lon="7.43077">
        <ele>1366</ele>
        <time>2016-05-05T11:15:25Z</time>
      </trkpt>
      <trkpt lat="46.1959" lon="7.43078">
        <ele>1365</ele>
        <time>2016-05-05T11:15:46Z</time>
      </trkpt>
      <trkpt lat="46.19594" lon="7.43056">
        <ele>1361</ele>
        <time>2016-05-05T11:16:02Z</time>
      </trkpt>
      <trkpt lat="46.19597" lon="7.43035">
        <ele>1350</ele>
        <time>2016-05-05T11:16:12Z</time>
      </trkpt>
      <trkpt lat="46.19604" lon="7.43028">
        <ele>1348</ele>
        <time>2016-05-05T11:16:48Z</time>
      </trkpt>
      <trkpt lat="46.19605" lon="7.43027">
        <ele>1349</ele>
        <time>2016-05-05T11:16:53Z</time>
      </trkpt>
      <trkpt lat="46.19605" lon="7.43025">
        <ele>1350</ele>
        <time>2016-05-05T11:16:56Z</time>
      </trkpt>
      <trkpt lat="46.19614" lon="7.43009">
        <ele>1355</ele>
        <time>2016-05-05T11:17:26Z</time>
      </trkpt>
      <trkpt lat="46.19618" lon="7.43009">
        <ele>1355</ele>
        <time>2016-05-05T11:17:27Z</time>
      </trkpt>
      <trkpt lat="46.19632" lon="7.42994">
        <ele>1366</ele>
        <time>2016-05-05T11:17:49Z</time>
      </trkpt>
      <trkpt lat="46.19635" lon="7.42992">
        <ele>1378</ele>
        <time>2016-05-05T11:18:25Z</time>
      </trkpt>
      <trkpt lat="46.19638" lon="7.42969">
        <ele>1378</ele>
        <time>2016-05-05T11:18:55Z</time>
      </trkpt>
      <trkpt lat="46.19644" lon="7.42951">
        <ele>1368</ele>
        <time>2016-05-05T11:19:03Z</time>
      </trkpt>
      <trkpt lat="46.19645" lon="7.42935">
        <ele>1376</ele>
        <time>2016-05-05T11:19:35Z</time>
      </trkpt>
      <trkpt lat="46.19649" lon="7.42925">
        <ele>1377</ele>
        <time>2016-05-05T11:20:24Z</time>
      </trkpt>
      <trkpt lat="46.19641" lon="7.42907">
        <ele>1370</ele>
        <time>2016-05-05T11:21:41Z</time>
      </trkpt>
      <trkpt lat="46.19629" lon="7.42918">
        <ele>1378</ele>
        <time>2016-05-05T11:21:58Z</time>
      </trkpt>
      <trkpt lat="46.19624" lon="7.42925">
        <ele>1378</ele>
        <time>2016-05-05T11:22:01Z</time>
      </trkpt>
      <trkpt lat="46.19623" lon="7.42925">
        <ele>1378</ele>
        <time>2016-05-05T11:22:02Z</time>
      </trkpt>
      <trkpt lat="46.19624" lon="7.42925">
        <ele>1376</ele>
        <time>2016-05-05T11:22:05Z</time>
      </trkpt>
      <trkpt lat="46.19625" lon="7.42919">
        <ele>1375</ele>
        <time>2016-05-05T11:22:11Z</time>
      </trkpt>
      <trkpt lat="46.19623" lon="7.42898">
        <ele>1370</ele>
        <time>2016-05-05T11:22:24Z</time>
      </trkpt>
      <trkpt lat="46.19622" lon="7.42897">
        <ele>1371</ele>
        <time>2016-05-05T11:22:26Z</time>
      </trkpt>
      <trkpt lat="46.19615" lon="7.42876">
        <ele>1362</ele>
        <time>2016-05-05T11:22:46Z</time>
      </trkpt>
      <trkpt lat="46.19611" lon="7.42882">
        <ele>1361</ele>
        <time>2016-05-05T11:22:52Z</time>
      </trkpt>
      <trkpt lat="46.19608" lon="7.42903">
        <ele>1366</ele>
        <time>2016-05-05T11:23:12Z</time>
      </trkpt>
      <trkpt lat="46.19606" lon="7.42907">
        <ele>1366</ele>
        <time>2016-05-05T11:23:14Z</time>
      </trkpt>
      <trkpt lat="46.19606" lon="7.42907">
        <ele>1366</ele>
        <time>2016-05-05T11:23:15Z</time>
      </trkpt>
      <trkpt lat="46.19594" lon="7.42919">
        <ele>1365</ele>
        <time>2016-05-05T11:23:41Z</time>
      </trkpt>
      <trkpt lat="46.19595" lon="7.42918">
        <ele>1366</ele>
        <time>2016-05-05T11:23:53Z</time>
      </trkpt>
      <trkpt lat="46.19595" lon="7.42917">
        <ele>1366</ele>
        <time>2016-05-05T11:24:00Z</time>
      </trkpt>
      <trkpt lat="46.19595" lon="7.42917">
        <ele>1366</ele>
        <time>2016-05-05T11:24:06Z</time>
      </trkpt>
      <trkpt lat="46.19595" lon="7.42918">
        <ele>1366</ele>
        <time>2016-05-05T11:24:06Z</time>
      </trkpt>
      <trkpt lat="46.19595" lon="7.42917">
        <ele>1366</ele>
        <time>2016-05-05T11:24:27Z</time>
      </trkpt>
      <trkpt lat="46.19595" lon="7.42917">
        <ele>1366</ele>
        <time>2016-05-05T11:24:35Z</time>
      </trkpt>
      <trkpt lat="46.19595" lon="7.42918">
        <ele>1366</ele>
        <time>2016-05-05T11:24:49Z</time>
      </trkpt>
      <trkpt lat="46.19597" lon="7.4294">
        <ele>1366</ele>
        <time>2016-05-05T11:24:57Z</time>
      </trkpt>
      <trkpt lat="46.19593" lon="7.42971">
        <ele>1360</ele>
        <time>2016-05-05T11:25:05Z</time>
      </trkpt>
      <trkpt lat="46.19586" lon="7.42965">
        <ele>1360</ele>
        <time>2016-05-05T11:25:11Z</time>
      </trkpt>
      <trkpt lat="46.19589" lon="7.42986">
        <ele>1370</ele>
        <time>2016-05-05T11:25:50Z</time>
      </trkpt>
      <trkpt lat="46.19601" lon="7.43008">
        <ele>1375</ele>
        <time>2016-05-05T11:25:55Z</time>
      </trkpt>
      <trkpt lat="46.19603" lon="7.4301">
        <ele>1379</ele>
        <time>2016-05-05T11:25:56Z</time>
      </trkpt>
      <trkpt lat="46.19588" lon="7.43021">
        <ele>1379</ele>
        <time>2016-05-05T11:25:58Z</time>
      </trkpt>
      <trkpt lat="46.19589" lon="7.43023">
        <ele>1381</ele>
        <time>2016-05-05T11:25:59Z</time>
      </trkpt>
      <trkpt lat="46.19582" lon="7.43046">
        <ele>1378</ele>
        <time>2016-05-05T11:26:31Z</time>
      </trkpt>
      <trkpt lat="46.19575" lon="7.43065">
        <ele>1373</ele>
        <time>2016-05-05T11:26:33Z</time>
      </trkpt>
      <trkpt lat="46.19573" lon="7.43087">
        <ele>1365</ele>
        <time>2016-05-05T11:26:37Z</time>
      </trkpt>
      <trkpt lat="46.19572" lon="7.43109">
        <ele>1364</ele>
        <time>2016-05-05T11:26:42Z</time>
      </trkpt>
      <trkpt lat="46.19563" lon="7.43127">
        <ele>1367</ele>
        <time>2016-05-05T11:26:56Z</time>
      </trkpt>
      <trkpt lat="46.19558" lon="7.43132">
        <ele>1367</ele>
        <time>2016-05-05T11:26:58Z</time>
      </trkpt>
      <trkpt lat="46.19556" lon="7.43132">
        <ele>1367</ele>
        <time>2016-05-05T11:26:59Z</time>
      </trkpt>
      <trkpt lat="46.19553" lon="7.4311">
        <ele>1357</ele>
        <time>2016-05-05T11:27:15Z</time>
      </trkpt>
      <trkpt lat="46.19553" lon="7.43106">
        <ele>1358</ele>
        <time>2016-05-05T11:27:17Z</time>
      </trkpt>
      <trkpt lat="46.19556" lon="7.43085">
        <ele>1352</ele>
        <time>2016-05-05T11:27:31Z</time>
      </trkpt>
      <trkpt lat="46.1956" lon="7.43063">
        <ele>1349</ele>
        <time>2016-05-05T11:27:41Z</time>
      </trkpt>
      <trkpt lat="46.19561" lon="7.4306">
        <ele>1348</ele>
        <time>2016-05-05T11:27:44Z</time>
      </trkpt>
      <trkpt lat="46.19559" lon="7.4304">
        <ele>1343</ele>
        <time>2016-05-05T11:27:55Z</time>
      </trkpt>
      <trkpt lat="46.19557" lon="7.43018">
        <ele>1344</ele>
        <time>2016-05-05T11:28:07Z</time>
      </trkpt>
      <trkpt lat="46.19557" lon="7.43016">
        <ele>1343</ele>
        <time>2016-05-05T11:28:08Z</time>
      </trkpt>
      <trkpt lat="46.1956" lon="7.42995">
        <ele>1336</ele>
        <time>2016-05-05T11:28:17Z</time>
      </trkpt>
      <trkpt lat="46.1956" lon="7.42989">
        <ele>1336</ele>
        <time>2016-05-05T11:28:23Z</time>
      </trkpt>
      <trkpt lat="46.1956" lon="7.42968">
        <ele>1337</ele>
        <time>2016-05-05T11:28:33Z</time>
      </trkpt>
      <trkpt lat="46.19561" lon="7.42947">
        <ele>1334</ele>
        <time>2016-05-05T11:28:43Z</time>
      </trkpt>
      <trkpt lat="46.19561" lon="7.42947">
        <ele>1335</ele>
        <time>2016-05-05T11:28:46Z</time>
      </trkpt>
      <trkpt lat="46.19562" lon="7.42948">
        <ele>1339</ele>
        <time>2016-05-05T11:28:49Z</time>
      </trkpt>
      <trkpt lat="46.1957" lon="7.42923">
        <ele>1337</ele>
        <time>2016-05-05T11:29:13Z</time>
      </trkpt>
      <trkpt lat="46.19583" lon="7.42913">
        <ele>1331</ele>
        <time>2016-05-05T11:29:19Z</time>
      </trkpt>
      <trkpt lat="46.19586" lon="7.42909">
        <ele>1333</ele>
        <time>2016-05-05T11:29:23Z</time>
      </trkpt>
      <trkpt lat="46.19589" lon="7.42888">
        <ele>1339</ele>
        <time>2016-05-05T11:30:22Z</time>
      </trkpt>
      <trkpt lat="46.19598" lon="7.42872">
        <ele>1342</ele>
        <time>2016-05-05T11:30:38Z</time>
      </trkpt>
      <trkpt lat="46.19614" lon="7.42863">
        <ele>1344</ele>
        <time>2016-05-05T11:30:53Z</time>
      </trkpt>
      <trkpt lat="46.19625" lon="7.42862">
        <ele>1343</ele>
        <time>2016-05-05T11:31:01Z</time>
      </trkpt>
      <trkpt lat="46.1964" lon="7.42856">
        <ele>1340</ele>
        <time>2016-05-05T11:31:10Z</time>
      </trkpt>
      <trkpt lat="46.19643" lon="7.42854">
        <ele>1342</ele>
        <time>2016-05-05T11:31:13Z</time>
      </trkpt>
      <trkpt lat="46.19648" lon="7.42849">
        <ele>1345</ele>
        <time>2016-05-05T11:31:24Z</time>
      </trkpt>
      <trkpt lat="46.19663" lon="7.42849">
        <ele>1357</ele>
        <time>2016-05-05T11:32:05Z</time>
      </trkpt>
      <trkpt lat="46.19663" lon="7.42847">
        <ele>1359</ele>
        <time>2016-05-05T11:32:08Z</time>
      </trkpt>
      <trkpt lat="46.19675" lon="7.42859">
        <ele>1363</ele>
        <time>2016-05-05T11:32:28Z</time>
      </trkpt>
      <trkpt lat="46.19676" lon="7.42858">
        <ele>1363</ele>
        <time>2016-05-05T11:32:31Z</time>
      </trkpt>
      <trkpt lat="46.19676" lon="7.42858">
        <ele>1363</ele>
        <time>2016-05-05T11:32:39Z</time>
      </trkpt>
      <trkpt lat="46.19681" lon="7.42835">
        <ele>1360</ele>
        <time>2016-05-05T11:34:09Z</time>
      </trkpt>
      <trkpt lat="46.19679" lon="7.42837">
        <ele>1358</ele>
        <time>2016-05-05T11:34:10Z</time>
      </trkpt>
      <trkpt lat="46.19683" lon="7.42832">
        <ele>1357</ele>
        <time>2016-05-05T11:34:12Z</time>
      </trkpt>
      <trkpt lat="46.19686" lon="7.42833">
        <ele>1354</ele>
        <time>2016-05-05T11:34:13Z</time>
      </trkpt>
      <trkpt lat="46.19698" lon="7.4282">
        <ele>1353</ele>
        <time>2016-05-05T11:34:35Z</time>
      </trkpt>
      <trkpt lat="46.19698" lon="7.42815">
        <ele>1355</ele>
        <time>2016-05-05T11:34:37Z</time>
      </trkpt>
      <trkpt lat="46.19711" lon="7.42823">
        <ele>1347</ele>
        <time>2016-05-05T11:34:59Z</time>
      </trkpt>
      <trkpt lat="46.19711" lon="7.42828">
        <ele>1343</ele>
        <time>2016-05-05T11:35:01Z</time>
      </trkpt>
      <trkpt lat="46.19706" lon="7.42807">
        <ele>1340</ele>
        <time>2016-05-05T11:35:27Z</time>
      </trkpt>
      <trkpt lat="46.19707" lon="7.42807">
        <ele>1340</ele>
        <time>2016-05-05T11:35:28Z</time>
      </trkpt>
      <trkpt lat="46.19708" lon="7.42814">
        <ele>1337</ele>
        <time>2016-05-05T11:35:32Z</time>
      </trkpt>
      <trkpt lat="46.19718" lon="7.42815">
        <ele>1339</ele>
        <time>2016-05-05T11:35:41Z</time>
      </trkpt>
      <trkpt lat="46.19717" lon="7.42817">
        <ele>1335</ele>
        <time>2016-05-05T11:36:18Z</time>
      </trkpt>
      <trkpt lat="46.19717" lon="7.42817">
        <ele>1335</ele>
        <time>2016-05-05T11:36:48Z</time>
      </trkpt>
      <trkpt lat="46.19734" lon="7.4282">
        <ele>1333</ele>
        <time>2016-05-05T11:37:06Z</time>
      </trkpt>
      <trkpt lat="46.1975" lon="7.42826">
        <ele>1326</ele>
        <time>2016-05-05T11:37:14Z</time>
      </trkpt>
      <trkpt lat="46.19769" lon="7.42824">
        <ele>1330</ele>
        <time>2016-05-05T11:37:23Z</time>
      </trkpt>
      <trkpt lat="46.19772" lon="7.42823">
        <ele>1327</ele>
        <time>2016-05-05T11:37:25Z</time>
      </trkpt>
      <trkpt lat="46.19772" lon="7.42823">
        <ele>1325</ele>
        <time>2016-05-05T11:37:26Z</time>
      </trkpt>
      <trkpt lat="46.19788" lon="7.42822">
        <ele>1326</ele>
        <time>2016-05-05T11:37:46Z</time>
      </trkpt>
      <trkpt lat="46.19802" lon="7.42828">
        <ele>1320</ele>
        <time>2016-05-05T11:38:00Z</time>
      </trkpt>
      <trkpt lat="46.19805" lon="7.42822">
        <ele>1322</ele>
        <time>2016-05-05T11:38:03Z</time>
      </trkpt>
      <trkpt lat="46.19806" lon="7.42818">
        <ele>1322</ele>
        <time>2016-05-05T11:38:05Z</time>
      </trkpt>
      <trkpt lat="46.19814" lon="7.428">
        <ele>1328</ele>
        <time>2016-05-05T11:38:14Z</time>
      </trkpt>
      <trkpt lat="46.19814" lon="7.42799">
        <ele>1328</ele>
        <time>2016-05-05T11:38:15Z</time>
      </trkpt>
      <trkpt lat="46.19819" lon="7.42779">
        <ele>1322</ele>
        <time>2016-05-05T11:38:29Z</time>
      </trkpt>
      <trkpt lat="46.1982" lon="7.42779">
        <ele>1320</ele>
        <time>2016-05-05T11:38:30Z</time>
      </trkpt>
      <trkpt lat="46.19828" lon="7.42775">
        <ele>1310</ele>
        <time>2016-05-05T11:38:39Z</time>
      </trkpt>
      <trkpt lat="46.19835" lon="7.42772">
        <ele>1301</ele>
        <time>2016-05-05T11:38:46Z</time>
      </trkpt>
      <trkpt lat="46.19832" lon="7.42752">
        <ele>1294</ele>
        <time>2016-05-05T11:39:34Z</time>
      </trkpt>
      <trkpt lat="46.19838" lon="7.42732">
        <ele>1297</ele>
        <time>2016-05-05T11:39:45Z</time>
      </trkpt>
      <trkpt lat="46.19845" lon="7.42717">
        <ele>1297</ele>
        <time>2016-05-05T11:39:57Z</time>
      </trkpt>
      <trkpt lat="46.19854" lon="7.42699">
        <ele>1292</ele>
        <time>2016-05-05T11:40:10Z</time>
      </trkpt>
      <trkpt lat="46.19864" lon="7.42681">
        <ele>1286</ele>
        <time>2016-05-05T11:40:17Z</time>
      </trkpt>
      <trkpt lat="46.19873" lon="7.42665">
        <ele>1286</ele>
        <time>2016-05-05T11:40:25Z</time>
      </trkpt>
      <trkpt lat="46.19885" lon="7.4265">
        <ele>1284</ele>
        <time>2016-05-05T11:40:33Z</time>
      </trkpt>
      <trkpt lat="46.199" lon="7.42659">
        <ele>1298</ele>
        <time>2016-05-05T11:40:57Z</time>
      </trkpt>
      <trkpt lat="46.19902" lon="7.42657">
        <ele>1298</ele>
        <time>2016-05-05T11:40:58Z</time>
      </trkpt>
      <trkpt lat="46.19918" lon="7.42674">
        <ele>1311</ele>
        <time>2016-05-05T11:41:20Z</time>
      </trkpt>
      <trkpt lat="46.19918" lon="7.42668">
        <ele>1310</ele>
        <time>2016-05-05T11:41:22Z</time>
      </trkpt>
      <trkpt lat="46.19917" lon="7.42667">
        <ele>1310</ele>
        <time>2016-05-05T11:41:23Z</time>
      </trkpt>
      <trkpt lat="46.19919" lon="7.4267">
        <ele>1309</ele>
        <time>2016-05-05T11:41:26Z</time>
      </trkpt>
      <trkpt lat="46.19926" lon="7.42684">
        <ele>1303</ele>
        <time>2016-05-05T11:41:31Z</time>
      </trkpt>
      <trkpt lat="46.1993" lon="7.42684">
        <ele>1304</ele>
        <time>2016-05-05T11:41:36Z</time>
      </trkpt>
      <trkpt lat="46.19938" lon="7.42701">
        <ele>1301</ele>
        <time>2016-05-05T11:41:42Z</time>
      </trkpt>
      <trkpt lat="46.19952" lon="7.42714">
        <ele>1300</ele>
        <time>2016-05-05T11:41:56Z</time>
      </trkpt>
      <trkpt lat="46.19965" lon="7.42725">
        <ele>1298</ele>
        <time>2016-05-05T11:42:13Z</time>
      </trkpt>
      <trkpt lat="46.19979" lon="7.42735">
        <ele>1295</ele>
        <time>2016-05-05T11:42:24Z</time>
      </trkpt>
      <trkpt lat="46.19985" lon="7.42729">
        <ele>1295</ele>
        <time>2016-05-05T11:42:30Z</time>
      </trkpt>
      <trkpt lat="46.19998" lon="7.42741">
        <ele>1299</ele>
        <time>2016-05-05T11:42:44Z</time>
      </trkpt>
      <trkpt lat="46.20001" lon="7.42744">
        <ele>1295</ele>
        <time>2016-05-05T11:42:48Z</time>
      </trkpt>
      <trkpt lat="46.20011" lon="7.42759">
        <ele>1293</ele>
        <time>2016-05-05T11:43:00Z</time>
      </trkpt>
      <trkpt lat="46.2002" lon="7.42759">
        <ele>1294</ele>
        <time>2016-05-05T11:43:10Z</time>
      </trkpt>
      <trkpt lat="46.20032" lon="7.42744">
        <ele>1289</ele>
        <time>2016-05-05T11:43:24Z</time>
      </trkpt>
      <trkpt lat="46.20034" lon="7.42738">
        <ele>1286</ele>
        <time>2016-05-05T11:43:41Z</time>
      </trkpt>
      <trkpt lat="46.20049" lon="7.42739">
        <ele>1283</ele>
        <time>2016-05-05T11:44:27Z</time>
      </trkpt>
      <trkpt lat="46.20059" lon="7.4273">
        <ele>1289</ele>
        <time>2016-05-05T11:44:31Z</time>
      </trkpt>
      <trkpt lat="46.20073" lon="7.42721">
        <ele>1292</ele>
        <time>2016-05-05T11:44:40Z</time>
      </trkpt>
      <trkpt lat="46.20073" lon="7.42718">
        <ele>1291</ele>
        <time>2016-05-05T11:44:41Z</time>
      </trkpt>
      <trkpt lat="46.20088" lon="7.4273">
        <ele>1284</ele>
        <time>2016-05-05T11:44:43Z</time>
      </trkpt>
      <trkpt lat="46.201" lon="7.42715">
        <ele>1283</ele>
        <time>2016-05-05T11:44:52Z</time>
      </trkpt>
      <trkpt lat="46.20105" lon="7.42715">
        <ele>1284</ele>
        <time>2016-05-05T11:44:56Z</time>
      </trkpt>
      <trkpt lat="46.20117" lon="7.42718">
        <ele>1287</ele>
        <time>2016-05-05T11:45:05Z</time>
      </trkpt>
      <trkpt lat="46.20134" lon="7.42714">
        <ele>1291</ele>
        <time>2016-05-05T11:45:17Z</time>
      </trkpt>
      <trkpt lat="46.20149" lon="7.42718">
        <ele>1284</ele>
        <time>2016-05-05T11:45:29Z</time>
      </trkpt>
      <trkpt lat="46.20149" lon="7.42717">
        <ele>1285</ele>
        <time>2016-05-05T11:45:30Z</time>
      </trkpt>
      <trkpt lat="46.20151" lon="7.42715">
        <ele>1285</ele>
        <time>2016-05-05T11:45:33Z</time>
      </trkpt>
      <trkpt lat="46.2016" lon="7.42727">
        <ele>1283</ele>
        <time>2016-05-05T11:45:37Z</time>
      </trkpt>
      <trkpt lat="46.20172" lon="7.4274">
        <ele>1273</ele>
        <time>2016-05-05T11:45:48Z</time>
      </trkpt>
      <trkpt lat="46.20176" lon="7.42738">
        <ele>1275</ele>
        <time>2016-05-05T11:45:52Z</time>
      </trkpt>
      <trkpt lat="46.2019" lon="7.42744">
        <ele>1276</ele>
        <time>2016-05-05T11:46:00Z</time>
      </trkpt>
      <trkpt lat="46.20195" lon="7.42751">
        <ele>1270</ele>
        <time>2016-05-05T11:46:02Z</time>
      </trkpt>
      <trkpt lat="46.20195" lon="7.42751">
        <ele>1269</ele>
        <time>2016-05-05T11:46:03Z</time>
      </trkpt>
      <trkpt lat="46.20204" lon="7.42756">
        <ele>1272</ele>
        <time>2016-05-05T11:46:09Z</time>
      </trkpt>
      <trkpt lat="46.20215" lon="7.42742">
        <ele>1275</ele>
        <time>2016-05-05T11:46:35Z</time>
      </trkpt>
      <trkpt lat="46.20216" lon="7.42744">
        <ele>1273</ele>
        <time>2016-05-05T11:46:36Z</time>
      </trkpt>
      <trkpt lat="46.2023" lon="7.4275">
        <ele>1275</ele>
        <time>2016-05-05T11:46:56Z</time>
      </trkpt>
      <trkpt lat="46.20235" lon="7.42763">
        <ele>1271</ele>
        <time>2016-05-05T11:47:02Z</time>
      </trkpt>
      <trkpt lat="46.20249" lon="7.42771">
        <ele>1276</ele>
        <time>2016-05-05T11:47:12Z</time>
      </trkpt>
      <trkpt lat="46.20263" lon="7.4277">
        <ele>1285</ele>
        <time>2016-05-05T11:47:31Z</time>
      </trkpt>
      <trkpt lat="46.20261" lon="7.42768">
        <ele>1285</ele>
        <time>2016-05-05T11:47:33Z</time>
      </trkpt>
      <trkpt lat="46.2026" lon="7.42763">
        <ele>1286</ele>
        <time>2016-05-05T11:47:34Z</time>
      </trkpt>
      <trkpt lat="46.20263" lon="7.42767">
        <ele>1287</ele>
        <time>2016-05-05T11:47:35Z</time>
      </trkpt>
      <trkpt lat="46.20276" lon="7.42787">
        <ele>1289</ele>
        <time>2016-05-05T11:47:53Z</time>
      </trkpt>
      <trkpt lat="46.20277" lon="7.42765">
        <ele>1289</ele>
        <time>2016-05-05T11:48:05Z</time>
      </trkpt>
      <trkpt lat="46.20282" lon="7.42773">
        <ele>1291</ele>
        <time>2016-05-05T11:48:05Z</time>
      </trkpt>
      <trkpt lat="46.20282" lon="7.42775">
        <ele>1294</ele>
        <time>2016-05-05T11:48:07Z</time>
      </trkpt>
      <trkpt lat="46.20283" lon="7.42778">
        <ele>1293</ele>
        <time>2016-05-05T11:48:08Z</time>
      </trkpt>
      <trkpt lat="46.20293" lon="7.42795">
        <ele>1294</ele>
        <time>2016-05-05T11:48:14Z</time>
      </trkpt>
      <trkpt lat="46.20298" lon="7.42808">
        <ele>1291</ele>
        <time>2016-05-05T11:48:16Z</time>
      </trkpt>
      <trkpt lat="46.20307" lon="7.42806">
        <ele>1299</ele>
        <time>2016-05-05T11:48:23Z</time>
      </trkpt>
      <trkpt lat="46.2032" lon="7.42819">
        <ele>1298</ele>
        <time>2016-05-05T11:48:36Z</time>
      </trkpt>
      <trkpt lat="46.20328" lon="7.42828">
        <ele>1299</ele>
        <time>2016-05-05T11:48:44Z</time>
      </trkpt>
      <trkpt lat="46.20326" lon="7.42841">
        <ele>1299</ele>
        <time>2016-05-05T11:48:51Z</time>
      </trkpt>
      <trkpt lat="46.20326" lon="7.42864">
        <ele>1294</ele>
        <time>2016-05-05T11:48:56Z</time>
      </trkpt>
      <trkpt lat="46.20333" lon="7.42853">
        <ele>1300</ele>
        <time>2016-05-05T11:49:04Z</time>
      </trkpt>
      <trkpt lat="46.20349" lon="7.42859">
        <ele>1298</ele>
        <time>2016-05-05T11:49:19Z</time>
      </trkpt>
      <trkpt lat="46.20354" lon="7.42881">
        <ele>1298</ele>
        <time>2016-05-05T11:49:30Z</time>
      </trkpt>
      <trkpt lat="46.20353" lon="7.42878">
        <ele>1299</ele>
        <time>2016-05-05T11:49:31Z</time>
      </trkpt>
      <trkpt lat="46.2036" lon="7.42899">
        <ele>1299</ele>
        <time>2016-05-05T11:49:36Z</time>
      </trkpt>
      <trkpt lat="46.2036" lon="7.42905">
        <ele>1299</ele>
        <time>2016-05-05T11:49:37Z</time>
      </trkpt>
      <trkpt lat="46.20362" lon="7.42906">
        <ele>1299</ele>
        <time>2016-05-05T11:49:39Z</time>
      </trkpt>
      <trkpt lat="46.20375" lon="7.42896">
        <ele>1302</ele>
        <time>2016-05-05T11:49:57Z</time>
      </trkpt>
      <trkpt lat="46.20375" lon="7.42895">
        <ele>1305</ele>
        <time>2016-05-05T11:49:58Z</time>
      </trkpt>
      <trkpt lat="46.20377" lon="7.42905">
        <ele>1305</ele>
        <time>2016-05-05T11:49:59Z</time>
      </trkpt>
      <trkpt lat="46.20383" lon="7.42917">
        <ele>1302</ele>
        <time>2016-05-05T11:50:05Z</time>
      </trkpt>
      <trkpt lat="46.20392" lon="7.42922">
        <ele>1305</ele>
        <time>2016-05-05T11:50:11Z</time>
      </trkpt>
      <trkpt lat="46.20404" lon="7.42933">
        <ele>1305</ele>
        <time>2016-05-05T11:50:34Z</time>
      </trkpt>
      <trkpt lat="46.20411" lon="7.42934">
        <ele>1306</ele>
        <time>2016-05-05T11:50:39Z</time>
      </trkpt>
      <trkpt lat="46.2041" lon="7.42931">
        <ele>1308</ele>
        <time>2016-05-05T11:50:41Z</time>
      </trkpt>
      <trkpt lat="46.20413" lon="7.42936">
        <ele>1306</ele>
        <time>2016-05-05T11:50:42Z</time>
      </trkpt>
      <trkpt lat="46.20422" lon="7.42956">
        <ele>1302</ele>
        <time>2016-05-05T11:50:50Z</time>
      </trkpt>
      <trkpt lat="46.20423" lon="7.42968">
        <ele>1301</ele>
        <time>2016-05-05T11:50:54Z</time>
      </trkpt>
      <trkpt lat="46.2043" lon="7.42954">
        <ele>1304</ele>
        <time>2016-05-05T11:51:00Z</time>
      </trkpt>
      <trkpt lat="46.2044" lon="7.42972">
        <ele>1305</ele>
        <time>2016-05-05T11:51:05Z</time>
      </trkpt>
      <trkpt lat="46.20441" lon="7.42973">
        <ele>1305</ele>
        <time>2016-05-05T11:51:06Z</time>
      </trkpt>
      <trkpt lat="46.20445" lon="7.42994">
        <ele>1302</ele>
        <time>2016-05-05T11:51:14Z</time>
      </trkpt>
      <trkpt lat="46.2045" lon="7.43014">
        <ele>1302</ele>
        <time>2016-05-05T11:51:23Z</time>
      </trkpt>
      <trkpt lat="46.20464" lon="7.43025">
        <ele>1301</ele>
        <time>2016-05-05T11:51:38Z</time>
      </trkpt>
      <trkpt lat="46.20475" lon="7.43011">
        <ele>1302</ele>
        <time>2016-05-05T11:51:47Z</time>
      </trkpt>
      <trkpt lat="46.2048" lon="7.43014">
        <ele>1304</ele>
        <time>2016-05-05T11:51:53Z</time>
      </trkpt>
      <trkpt lat="46.20484" lon="7.43015">
        <ele>1306</ele>
        <time>2016-05-05T11:51:59Z</time>
      </trkpt>
      <trkpt lat="46.20491" lon="7.43035">
        <ele>1307</ele>
        <time>2016-05-05T11:52:09Z</time>
      </trkpt>
      <trkpt lat="46.20495" lon="7.43047">
        <ele>1303</ele>
        <time>2016-05-05T11:52:15Z</time>
      </trkpt>
      <trkpt lat="46.20497" lon="7.43046">
        <ele>1305</ele>
        <time>2016-05-05T11:52:48Z</time>
      </trkpt>
      <trkpt lat="46.20507" lon="7.43061">
        <ele>1303</ele>
        <time>2016-05-05T12:00:37Z</time>
      </trkpt>
      <trkpt lat="46.20522" lon="7.43058">
        <ele>1307</ele>
        <time>2016-05-05T12:01:11Z</time>
      </trkpt>
      <trkpt lat="46.20536" lon="7.43071">
        <ele>1313</ele>
        <time>2016-05-05T12:01:23Z</time>
      </trkpt>
      <trkpt lat="46.20548" lon="7.43087">
        <ele>1314</ele>
        <time>2016-05-05T12:01:36Z</time>
      </trkpt>
      <trkpt lat="46.20553" lon="7.43092">
        <ele>1315</ele>
        <time>2016-05-05T12:01:40Z</time>
      </trkpt>
      <trkpt lat="46.20559" lon="7.431">
        <ele>1313</ele>
        <time>2016-05-05T12:01:46Z</time>
      </trkpt>
      <trkpt lat="46.20572" lon="7.4311">
        <ele>1308</ele>
        <time>2016-05-05T12:02:02Z</time>
      </trkpt>
      <trkpt lat="46.20585" lon="7.43124">
        <ele>1311</ele>
        <time>2016-05-05T12:02:15Z</time>
      </trkpt>
      <trkpt lat="46.20589" lon="7.43135">
        <ele>1313</ele>
        <time>2016-05-05T12:02:29Z</time>
      </trkpt>
      <trkpt lat="46.20599" lon="7.43149">
        <ele>1306</ele>
        <time>2016-05-05T12:02:42Z</time>
      </trkpt>
      <trkpt lat="46.20612" lon="7.43155">
        <ele>1299</ele>
        <time>2016-05-05T12:02:56Z</time>
      </trkpt>
      <trkpt lat="46.20626" lon="7.43163">
        <ele>1310</ele>
        <time>2016-05-05T12:03:04Z</time>
      </trkpt>
      <trkpt lat="46.20627" lon="7.43166">
        <ele>1312</ele>
        <time>2016-05-05T12:03:07Z</time>
      </trkpt>
      <trkpt lat="46.20642" lon="7.43171">
        <ele>1313</ele>
        <time>2016-05-05T12:03:24Z</time>
      </trkpt>
      <trkpt lat="46.20645" lon="7.43172">
        <ele>1313</ele>
        <time>2016-05-05T12:03:31Z</time>
      </trkpt>
      <trkpt lat="46.20658" lon="7.43184">
        <ele>1311</ele>
        <time>2016-05-05T12:03:45Z</time>
      </trkpt>
      <trkpt lat="46.20674" lon="7.4318">
        <ele>1319</ele>
        <time>2016-05-05T12:03:59Z</time>
      </trkpt>
      <trkpt lat="46.20689" lon="7.43187">
        <ele>1313</ele>
        <time>2016-05-05T12:04:16Z</time>
      </trkpt>
      <trkpt lat="46.20689" lon="7.43191">
        <ele>1313</ele>
        <time>2016-05-05T12:04:17Z</time>
      </trkpt>
      <trkpt lat="46.20705" lon="7.43197">
        <ele>1312</ele>
        <time>2016-05-05T12:04:33Z</time>
      </trkpt>
      <trkpt lat="46.20719" lon="7.43189">
        <ele>1314</ele>
        <time>2016-05-05T12:04:46Z</time>
      </trkpt>
      <trkpt lat="46.20721" lon="7.43189">
        <ele>1313</ele>
        <time>2016-05-05T12:04:48Z</time>
      </trkpt>
      <trkpt lat="46.2073" lon="7.43205">
        <ele>1313</ele>
        <time>2016-05-05T12:04:56Z</time>
      </trkpt>
      <trkpt lat="46.20731" lon="7.43206">
        <ele>1312</ele>
        <time>2016-05-05T12:04:57Z</time>
      </trkpt>
      <trkpt lat="46.20734" lon="7.43211">
        <ele>1312.5</ele>
        <time>2016-05-05T12:05:01Z</time>
      </trkpt>
      <trkpt lat="46.20745" lon="7.43226">
        <ele>1316.5</ele>
        <time>2016-05-05T12:05:11Z</time>
      </trkpt>
      <trkpt lat="46.20754" lon="7.43243">
        <ele>1318</ele>
        <time>2016-05-05T12:05:22Z</time>
      </trkpt>
      <trkpt lat="46.20766" lon="7.43255">
        <ele>1318.5</ele>
        <time>2016-05-05T12:05:35Z</time>
      </trkpt>
      <trkpt lat="46.20773" lon="7.43273">
        <ele>1318</ele>
        <time>2016-05-05T12:05:46Z</time>
      </trkpt>
      <trkpt lat="46.20784" lon="7.43287">
        <ele>1317.5</ele>
        <time>2016-05-05T12:05:59Z</time>
      </trkpt>
      <trkpt lat="46.20796" lon="7.43301">
        <ele>1316.5</ele>
        <time>2016-05-05T12:06:13Z</time>
      </trkpt>
      <trkpt lat="46.20804" lon="7.4332">
        <ele>1316.5</ele>
        <time>2016-05-05T12:06:25Z</time>
      </trkpt>
      <trkpt lat="46.20807" lon="7.4334">
        <ele>1314.5</ele>
        <time>2016-05-05T12:06:34Z</time>
      </trkpt>
      <trkpt lat="46.20818" lon="7.43356">
        <ele>1315</ele>
        <time>2016-05-05T12:06:46Z</time>
      </trkpt>
      <trkpt lat="46.20833" lon="7.43355">
        <ele>1321</ele>
        <time>2016-05-05T12:07:00Z</time>
      </trkpt>
      <trkpt lat="46.20846" lon="7.43362">
        <ele>1315.5</ele>
        <time>2016-05-05T12:07:12Z</time>
      </trkpt>
      <trkpt lat="46.20858" lon="7.43376">
        <ele>1312</ele>
        <time>2016-05-05T12:07:25Z</time>
      </trkpt>
      <trkpt lat="46.2087" lon="7.43389">
        <ele>1312</ele>
        <time>2016-05-05T12:07:36Z</time>
      </trkpt>
      <trkpt lat="46.20883" lon="7.43399">
        <ele>1315</ele>
        <time>2016-05-05T12:07:51Z</time>
      </trkpt>
      <trkpt lat="46.20894" lon="7.43414">
        <ele>1310</ele>
        <time>2016-05-05T12:08:03Z</time>
      </trkpt>
      <trkpt lat="46.2091" lon="7.43413">
        <ele>1317.5</ele>
        <time>2016-05-05T12:08:19Z</time>
      </trkpt>
      <trkpt lat="46.20924" lon="7.43407">
        <ele>1317.5</ele>
        <time>2016-05-05T12:08:31Z</time>
      </trkpt>
      <trkpt lat="46.20939" lon="7.43403">
        <ele>1317</ele>
        <time>2016-05-05T12:08:43Z</time>
      </trkpt>
      <trkpt lat="46.20941" lon="7.43382">
        <ele>1318</ele>
        <time>2016-05-05T12:08:48Z</time>
      </trkpt>
      <trkpt lat="46.2094" lon="7.43373">
        <ele>1320</ele>
        <time>2016-05-05T12:08:54Z</time>
      </trkpt>
      <trkpt lat="46.20941" lon="7.43358">
        <ele>1320</ele>
        <time>2016-05-05T12:09:23Z</time>
      </trkpt>
      <trkpt lat="46.20952" lon="7.43341">
        <ele>1310</ele>
        <time>2016-05-05T12:10:23Z</time>
      </trkpt>
      <trkpt lat="46.20966" lon="7.43327">
        <ele>1307</ele>
        <time>2016-05-05T12:10:30Z</time>
      </trkpt>
      <trkpt lat="46.20976" lon="7.43312">
        <ele>1313</ele>
        <time>2016-05-05T12:10:39Z</time>
      </trkpt>
      <trkpt lat="46.20987" lon="7.43299">
        <ele>1314</ele>
        <time>2016-05-05T12:11:05Z</time>
      </trkpt>
      <trkpt lat="46.21002" lon="7.43291">
        <ele>1311</ele>
        <time>2016-05-05T12:11:13Z</time>
      </trkpt>
      <trkpt lat="46.21005" lon="7.43296">
        <ele>1312</ele>
        <time>2016-05-05T12:11:16Z</time>
      </trkpt>
      <trkpt lat="46.21003" lon="7.43276">
        <ele>1313</ele>
        <time>2016-05-05T12:11:18Z</time>
      </trkpt>
      <trkpt lat="46.21004" lon="7.43268">
        <ele>1317</ele>
        <time>2016-05-05T12:11:19Z</time>
      </trkpt>
      <trkpt lat="46.21014" lon="7.43308">
        <ele>1316</ele>
        <time>2016-05-05T12:11:20Z</time>
      </trkpt>
      <trkpt lat="46.21013" lon="7.43299">
        <ele>1316</ele>
        <time>2016-05-05T12:11:20Z</time>
      </trkpt>
      <trkpt lat="46.21014" lon="7.43298">
        <ele>1318</ele>
        <time>2016-05-05T12:11:22Z</time>
      </trkpt>
      <trkpt lat="46.21022" lon="7.43281">
        <ele>1319</ele>
        <time>2016-05-05T12:11:31Z</time>
      </trkpt>
      <trkpt lat="46.21012" lon="7.43302">
        <ele>1315</ele>
        <time>2016-05-05T12:11:48Z</time>
      </trkpt>
      <trkpt lat="46.21011" lon="7.43297">
        <ele>1315</ele>
        <time>2016-05-05T12:11:57Z</time>
      </trkpt>
      <trkpt lat="46.2101" lon="7.433">
        <ele>1314</ele>
        <time>2016-05-05T12:11:59Z</time>
      </trkpt>
      <trkpt lat="46.21012" lon="7.43288">
        <ele>1314</ele>
        <time>2016-05-05T12:12:00Z</time>
      </trkpt>
      <trkpt lat="46.21011" lon="7.4329">
        <ele>1314</ele>
        <time>2016-05-05T12:12:01Z</time>
      </trkpt>
      <trkpt lat="46.21006" lon="7.43282">
        <ele>1312</ele>
        <time>2016-05-05T12:12:14Z</time>
      </trkpt>
      <trkpt lat="46.21015" lon="7.43277">
        <ele>1307</ele>
        <time>2016-05-05T12:12:32Z</time>
      </trkpt>
      <trkpt lat="46.21017" lon="7.43275">
        <ele>1304</ele>
        <time>2016-05-05T12:12:34Z</time>
      </trkpt>
      <trkpt lat="46.21019" lon="7.43274">
        <ele>1302</ele>
        <time>2016-05-05T12:12:35Z</time>
      </trkpt>
      <trkpt lat="46.21033" lon="7.43264">
        <ele>1300</ele>
        <time>2016-05-05T12:12:40Z</time>
      </trkpt>
      <trkpt lat="46.21047" lon="7.43257">
        <ele>1291</ele>
        <time>2016-05-05T12:12:44Z</time>
      </trkpt>
      <trkpt lat="46.21052" lon="7.43241">
        <ele>1298</ele>
        <time>2016-05-05T12:12:50Z</time>
      </trkpt>
      <trkpt lat="46.21053" lon="7.43238">
        <ele>1297</ele>
        <time>2016-05-05T12:12:51Z</time>
      </trkpt>
      <trkpt lat="46.21057" lon="7.43234">
        <ele>1296</ele>
        <time>2016-05-05T12:12:53Z</time>
      </trkpt>
      <trkpt lat="46.21071" lon="7.43224">
        <ele>1298</ele>
        <time>2016-05-05T12:13:04Z</time>
      </trkpt>
      <trkpt lat="46.2107" lon="7.43222">
        <ele>1297</ele>
        <time>2016-05-05T12:13:05Z</time>
      </trkpt>
      <trkpt lat="46.21083" lon="7.4321">
        <ele>1295</ele>
        <time>2016-05-05T12:13:18Z</time>
      </trkpt>
      <trkpt lat="46.21075" lon="7.43182">
        <ele>1287</ele>
        <time>2016-05-05T12:13:32Z</time>
      </trkpt>
      <trkpt lat="46.21083" lon="7.43174">
        <ele>1294</ele>
        <time>2016-05-05T12:13:34Z</time>
      </trkpt>
      <trkpt lat="46.21085" lon="7.4317">
        <ele>1294</ele>
        <time>2016-05-05T12:13:35Z</time>
      </trkpt>
      <trkpt lat="46.21088" lon="7.43168">
        <ele>1300</ele>
        <time>2016-05-05T12:13:38Z</time>
      </trkpt>
      <trkpt lat="46.2109" lon="7.43172">
        <ele>1297</ele>
        <time>2016-05-05T12:13:39Z</time>
      </trkpt>
      <trkpt lat="46.21096" lon="7.43177">
        <ele>1298</ele>
        <time>2016-05-05T12:13:40Z</time>
      </trkpt>
      <trkpt lat="46.21098" lon="7.43176">
        <ele>1300</ele>
        <time>2016-05-05T12:13:41Z</time>
      </trkpt>
      <trkpt lat="46.21103" lon="7.43177">
        <ele>1292</ele>
        <time>2016-05-05T12:13:43Z</time>
      </trkpt>
      <trkpt lat="46.2112" lon="7.43174">
        <ele>1314</ele>
        <time>2016-05-05T12:13:51Z</time>
      </trkpt>
      <trkpt lat="46.21132" lon="7.43161">
        <ele>1316</ele>
        <time>2016-05-05T12:14:02Z</time>
      </trkpt>
      <trkpt lat="46.21132" lon="7.43158">
        <ele>1315</ele>
        <time>2016-05-05T12:14:03Z</time>
      </trkpt>
      <trkpt lat="46.21137" lon="7.43168">
        <ele>1315</ele>
        <time>2016-05-05T12:14:09Z</time>
      </trkpt>
      <trkpt lat="46.21139" lon="7.43168">
        <ele>1315</ele>
        <time>2016-05-05T12:14:11Z</time>
      </trkpt>
      <trkpt lat="46.21154" lon="7.43168">
        <ele>1302</ele>
        <time>2016-05-05T12:15:23Z</time>
      </trkpt>
      <trkpt lat="46.21161" lon="7.43166">
        <ele>1304</ele>
        <time>2016-05-05T12:15:29Z</time>
      </trkpt>
      <trkpt lat="46.21174" lon="7.43159">
        <ele>1309</ele>
        <time>2016-05-05T12:15:42Z</time>
      </trkpt>
      <trkpt lat="46.21186" lon="7.43159">
        <ele>1313</ele>
        <time>2016-05-05T12:15:57Z</time>
      </trkpt>
      <trkpt lat="46.21201" lon="7.43158">
        <ele>1314</ele>
        <time>2016-05-05T12:16:11Z</time>
      </trkpt>
      <trkpt lat="46.212" lon="7.43155">
        <ele>1315</ele>
        <time>2016-05-05T12:16:13Z</time>
      </trkpt>
      <trkpt lat="46.21211" lon="7.43141">
        <ele>1312</ele>
        <time>2016-05-05T12:16:29Z</time>
      </trkpt>
      <trkpt lat="46.21222" lon="7.43126">
        <ele>1319</ele>
        <time>2016-05-05T12:16:49Z</time>
      </trkpt>
      <trkpt lat="46.21222" lon="7.43127">
        <ele>1319</ele>
        <time>2016-05-05T12:16:51Z</time>
      </trkpt>
      <trkpt lat="46.21237" lon="7.43122">
        <ele>1318</ele>
        <time>2016-05-05T12:17:07Z</time>
      </trkpt>
      <trkpt lat="46.2125" lon="7.43114">
        <ele>1321</ele>
        <time>2016-05-05T12:17:22Z</time>
      </trkpt>
      <trkpt lat="46.21261" lon="7.43099">
        <ele>1323</ele>
        <time>2016-05-05T12:17:37Z</time>
      </trkpt>
      <trkpt lat="46.21264" lon="7.43095">
        <ele>1323</ele>
        <time>2016-05-05T12:17:40Z</time>
      </trkpt>
      <trkpt lat="46.21275" lon="7.43079">
        <ele>1327</ele>
        <time>2016-05-05T12:17:51Z</time>
      </trkpt>
      <trkpt lat="46.21285" lon="7.43064">
        <ele>1326</ele>
        <time>2016-05-05T12:18:07Z</time>
      </trkpt>
      <trkpt lat="46.21297" lon="7.43047">
        <ele>1328</ele>
        <time>2016-05-05T12:18:17Z</time>
      </trkpt>
      <trkpt lat="46.21299" lon="7.43039">
        <ele>1332</ele>
        <time>2016-05-05T12:18:23Z</time>
      </trkpt>
      <trkpt lat="46.2131" lon="7.43024">
        <ele>1329</ele>
        <time>2016-05-05T12:18:36Z</time>
      </trkpt>
      <trkpt lat="46.21324" lon="7.43015">
        <ele>1330</ele>
        <time>2016-05-05T12:18:50Z</time>
      </trkpt>
      <trkpt lat="46.2133" lon="7.43006">
        <ele>1331</ele>
        <time>2016-05-05T12:18:56Z</time>
      </trkpt>
      <trkpt lat="46.21344" lon="7.43">
        <ele>1333</ele>
        <time>2016-05-05T12:19:07Z</time>
      </trkpt>
      <trkpt lat="46.21358" lon="7.42991">
        <ele>1338</ele>
        <time>2016-05-05T12:19:19Z</time>
      </trkpt>
      <trkpt lat="46.21364" lon="7.42984">
        <ele>1342</ele>
        <time>2016-05-05T12:19:25Z</time>
      </trkpt>
      <trkpt lat="46.21374" lon="7.42973">
        <ele>1347</ele>
        <time>2016-05-05T12:19:40Z</time>
      </trkpt>
      <trkpt lat="46.21389" lon="7.42974">
        <ele>1348</ele>
        <time>2016-05-05T12:19:53Z</time>
      </trkpt>
      <trkpt lat="46.21394" lon="7.42968">
        <ele>1345</ele>
        <time>2016-05-05T12:20:00Z</time>
      </trkpt>
      <trkpt lat="46.21393" lon="7.42968">
        <ele>1343</ele>
        <time>2016-05-05T12:20:16Z</time>
      </trkpt>
      <trkpt lat="46.21408" lon="7.42974">
        <ele>1348</ele>
        <time>2016-05-05T12:21:42Z</time>
      </trkpt>
      <trkpt lat="46.21413" lon="7.42973">
        <ele>1347</ele>
        <time>2016-05-05T12:21:48Z</time>
      </trkpt>
      <trkpt lat="46.21427" lon="7.42986">
        <ele>1349</ele>
        <time>2016-05-05T12:21:55Z</time>
      </trkpt>
      <trkpt lat="46.21437" lon="7.42995">
        <ele>1348</ele>
        <time>2016-05-05T12:22:02Z</time>
      </trkpt>
      <trkpt lat="46.21443" lon="7.43004">
        <ele>1354</ele>
        <time>2016-05-05T12:22:09Z</time>
      </trkpt>
      <trkpt lat="46.21458" lon="7.43008">
        <ele>1350</ele>
        <time>2016-05-05T12:22:20Z</time>
      </trkpt>
      <trkpt lat="46.21471" lon="7.42995">
        <ele>1345</ele>
        <time>2016-05-05T12:22:33Z</time>
      </trkpt>
      <trkpt lat="46.21474" lon="7.42994">
        <ele>1343</ele>
        <time>2016-05-05T12:22:36Z</time>
      </trkpt>
      <trkpt lat="46.21488" lon="7.43006">
        <ele>1349</ele>
        <time>2016-05-05T12:22:45Z</time>
      </trkpt>
      <trkpt lat="46.21489" lon="7.43004">
        <ele>1349</ele>
        <time>2016-05-05T12:22:46Z</time>
      </trkpt>
      <trkpt lat="46.215" lon="7.43021">
        <ele>1344</ele>
        <time>2016-05-05T12:22:51Z</time>
      </trkpt>
      <trkpt lat="46.21501" lon="7.43028">
        <ele>1343</ele>
        <time>2016-05-05T12:22:54Z</time>
      </trkpt>
      <trkpt lat="46.21505" lon="7.43007">
        <ele>1343</ele>
        <time>2016-05-05T12:23:10Z</time>
      </trkpt>
      <trkpt lat="46.21492" lon="7.42996">
        <ele>1347</ele>
        <time>2016-05-05T12:23:23Z</time>
      </trkpt>
      <trkpt lat="46.2148" lon="7.42983">
        <ele>1345</ele>
        <time>2016-05-05T12:23:32Z</time>
      </trkpt>
      <trkpt lat="46.21479" lon="7.42984">
        <ele>1345</ele>
        <time>2016-05-05T12:23:34Z</time>
      </trkpt>
      <trkpt lat="46.21489" lon="7.42993">
        <ele>1341</ele>
        <time>2016-05-05T12:23:40Z</time>
      </trkpt>
      <trkpt lat="46.21504" lon="7.42992">
        <ele>1344</ele>
        <time>2016-05-05T12:23:53Z</time>
      </trkpt>
      <trkpt lat="46.2152" lon="7.42994">
        <ele>1345</ele>
        <time>2016-05-05T12:24:10Z</time>
      </trkpt>
      <trkpt lat="46.21531" lon="7.42989">
        <ele>1345</ele>
        <time>2016-05-05T12:24:24Z</time>
      </trkpt>
      <trkpt lat="46.21545" lon="7.42998">
        <ele>1337</ele>
        <time>2016-05-05T12:24:35Z</time>
      </trkpt>
      <trkpt lat="46.2156" lon="7.43008">
        <ele>1329</ele>
        <time>2016-05-05T12:24:46Z</time>
      </trkpt>
      <trkpt lat="46.21573" lon="7.43018">
        <ele>1332</ele>
        <time>2016-05-05T12:25:00Z</time>
      </trkpt>
      <trkpt lat="46.2158" lon="7.4303">
        <ele>1333</ele>
        <time>2016-05-05T12:25:05Z</time>
      </trkpt>
      <trkpt lat="46.21596" lon="7.43031">
        <ele>1331</ele>
        <time>2016-05-05T12:25:20Z</time>
      </trkpt>
      <trkpt lat="46.216" lon="7.43032">
        <ele>1330</ele>
        <time>2016-05-05T12:25:23Z</time>
      </trkpt>
      <trkpt lat="46.21606" lon="7.43034">
        <ele>1332</ele>
        <time>2016-05-05T12:25:28Z</time>
      </trkpt>
      <trkpt lat="46.21611" lon="7.43039">
        <ele>1332</ele>
        <time>2016-05-05T12:25:30Z</time>
      </trkpt>
      <trkpt lat="46.21618" lon="7.43048">
        <ele>1328</ele>
        <time>2016-05-05T12:25:37Z</time>
      </trkpt>
      <trkpt lat="46.21632" lon="7.43056">
        <ele>1327</ele>
        <time>2016-05-05T12:25:48Z</time>
      </trkpt>
      <trkpt lat="46.21637" lon="7.43052">
        <ele>1325</ele>
        <time>2016-05-05T12:25:56Z</time>
      </trkpt>
      <trkpt lat="46.21653" lon="7.43046">
        <ele>1320</ele>
        <time>2016-05-05T12:26:11Z</time>
      </trkpt>
      <trkpt lat="46.21656" lon="7.43048">
        <ele>1320</ele>
        <time>2016-05-05T12:26:13Z</time>
      </trkpt>
      <trkpt lat="46.2167" lon="7.43041">
        <ele>1320</ele>
        <time>2016-05-05T12:26:28Z</time>
      </trkpt>
      <trkpt lat="46.21686" lon="7.43034">
        <ele>1318</ele>
        <time>2016-05-05T12:26:43Z</time>
      </trkpt>
      <trkpt lat="46.21701" lon="7.43039">
        <ele>1321</ele>
        <time>2016-05-05T12:26:55Z</time>
      </trkpt>
      <trkpt lat="46.21702" lon="7.43042">
        <ele>1320</ele>
        <time>2016-05-05T12:26:55Z</time>
      </trkpt>
      <trkpt lat="46.21699" lon="7.43044">
        <ele>1323</ele>
        <time>2016-05-05T12:26:59Z</time>
      </trkpt>
      <trkpt lat="46.21698" lon="7.43042">
        <ele>1325</ele>
        <time>2016-05-05T12:27:00Z</time>
      </trkpt>
      <trkpt lat="46.21697" lon="7.43039">
        <ele>1325</ele>
        <time>2016-05-05T12:27:21Z</time>
      </trkpt>
      <trkpt lat="46.21697" lon="7.43041">
        <ele>1324</ele>
        <time>2016-05-05T12:27:23Z</time>
      </trkpt>
      <trkpt lat="46.21697" lon="7.43041">
        <ele>1323</ele>
        <time>2016-05-05T12:27:29Z</time>
      </trkpt>
      <trkpt lat="46.21712" lon="7.43038">
        <ele>1325</ele>
        <time>2016-05-05T12:32:34Z</time>
      </trkpt>
      <trkpt lat="46.21727" lon="7.43033">
        <ele>1329</ele>
        <time>2016-05-05T12:32:40Z</time>
      </trkpt>
      <trkpt lat="46.21735" lon="7.43028">
        <ele>1332</ele>
        <time>2016-05-05T12:32:43Z</time>
      </trkpt>
      <trkpt lat="46.2175" lon="7.43027">
        <ele>1331</ele>
        <time>2016-05-05T12:32:52Z</time>
      </trkpt>
      <trkpt lat="46.21753" lon="7.43029">
        <ele>1328</ele>
        <time>2016-05-05T12:32:54Z</time>
      </trkpt>
      <trkpt lat="46.21766" lon="7.43019">
        <ele>1327</ele>
        <time>2016-05-05T12:33:03Z</time>
      </trkpt>
      <trkpt lat="46.21767" lon="7.4302">
        <ele>1326</ele>
        <time>2016-05-05T12:33:04Z</time>
      </trkpt>
      <trkpt lat="46.21782" lon="7.43016">
        <ele>1333</ele>
        <time>2016-05-05T12:33:21Z</time>
      </trkpt>
      <trkpt lat="46.21796" lon="7.43024">
        <ele>1331</ele>
        <time>2016-05-05T12:33:31Z</time>
      </trkpt>
      <trkpt lat="46.21795" lon="7.4303">
        <ele>1327</ele>
        <time>2016-05-05T12:33:33Z</time>
      </trkpt>
      <trkpt lat="46.21811" lon="7.43034">
        <ele>1328</ele>
        <time>2016-05-05T12:33:43Z</time>
      </trkpt>
      <trkpt lat="46.21815" lon="7.43036">
        <ele>1326</ele>
        <time>2016-05-05T12:33:47Z</time>
      </trkpt>
      <trkpt lat="46.21818" lon="7.43031">
        <ele>1326</ele>
        <time>2016-05-05T12:33:50Z</time>
      </trkpt>
      <trkpt lat="46.21826" lon="7.43027">
        <ele>1326</ele>
        <time>2016-05-05T12:33:54Z</time>
      </trkpt>
      <trkpt lat="46.21841" lon="7.43021">
        <ele>1322</ele>
        <time>2016-05-05T12:34:49Z</time>
      </trkpt>
      <trkpt lat="46.21855" lon="7.43018">
        <ele>1315</ele>
        <time>2016-05-05T12:34:56Z</time>
      </trkpt>
      <trkpt lat="46.2187" lon="7.43009">
        <ele>1319</ele>
        <time>2016-05-05T12:35:05Z</time>
      </trkpt>
      <trkpt lat="46.21879" lon="7.43">
        <ele>1322</ele>
        <time>2016-05-05T12:35:12Z</time>
      </trkpt>
      <trkpt lat="46.21884" lon="7.43">
        <ele>1323</ele>
        <time>2016-05-05T12:35:14Z</time>
      </trkpt>
      <trkpt lat="46.21887" lon="7.43001">
        <ele>1324</ele>
        <time>2016-05-05T12:35:14Z</time>
      </trkpt>
      <trkpt lat="46.21901" lon="7.43007">
        <ele>1315</ele>
        <time>2016-05-05T12:35:21Z</time>
      </trkpt>
      <trkpt lat="46.21912" lon="7.42997">
        <ele>1319</ele>
        <time>2016-05-05T12:35:32Z</time>
      </trkpt>
      <trkpt lat="46.21926" lon="7.42984">
        <ele>1321</ele>
        <time>2016-05-05T12:35:42Z</time>
      </trkpt>
      <trkpt lat="46.21937" lon="7.42967">
        <ele>1322</ele>
        <time>2016-05-05T12:35:50Z</time>
      </trkpt>
      <trkpt lat="46.21947" lon="7.42968">
        <ele>1323</ele>
        <time>2016-05-05T12:35:56Z</time>
      </trkpt>
      <trkpt lat="46.21962" lon="7.42963">
        <ele>1318</ele>
        <time>2016-05-05T12:36:09Z</time>
      </trkpt>
      <trkpt lat="46.21975" lon="7.42957">
        <ele>1317</ele>
        <time>2016-05-05T12:36:18Z</time>
      </trkpt>
      <trkpt lat="46.21975" lon="7.42955">
        <ele>1317</ele>
        <time>2016-05-05T12:36:19Z</time>
      </trkpt>
      <trkpt lat="46.21989" lon="7.42946">
        <ele>1315</ele>
        <time>2016-05-05T12:36:34Z</time>
      </trkpt>
      <trkpt lat="46.22003" lon="7.42933">
        <ele>1319</ele>
        <time>2016-05-05T12:36:50Z</time>
      </trkpt>
      <trkpt lat="46.22006" lon="7.42934">
        <ele>1324</ele>
        <time>2016-05-05T12:36:54Z</time>
      </trkpt>
      <trkpt lat="46.2202" lon="7.42923">
        <ele>1327</ele>
        <time>2016-05-05T12:37:07Z</time>
      </trkpt>
      <trkpt lat="46.22025" lon="7.42922">
        <ele>1328</ele>
        <time>2016-05-05T12:37:10Z</time>
      </trkpt>
      <trkpt lat="46.22038" lon="7.4291">
        <ele>1329</ele>
        <time>2016-05-05T12:37:21Z</time>
      </trkpt>
      <trkpt lat="46.22042" lon="7.42908">
        <ele>1332</ele>
        <time>2016-05-05T12:37:24Z</time>
      </trkpt>
      <trkpt lat="46.22044" lon="7.42908">
        <ele>1330</ele>
        <time>2016-05-05T12:37:27Z</time>
      </trkpt>
      <trkpt lat="46.2206" lon="7.42915">
        <ele>1324</ele>
        <time>2016-05-05T12:37:38Z</time>
      </trkpt>
      <trkpt lat="46.22067" lon="7.4292">
        <ele>1321</ele>
        <time>2016-05-05T12:37:45Z</time>
      </trkpt>
      <trkpt lat="46.22082" lon="7.42927">
        <ele>1317</ele>
        <time>2016-05-05T12:37:56Z</time>
      </trkpt>
      <trkpt lat="46.22097" lon="7.42927">
        <ele>1314</ele>
        <time>2016-05-05T12:38:08Z</time>
      </trkpt>
      <trkpt lat="46.22102" lon="7.42924">
        <ele>1317</ele>
        <time>2016-05-05T12:38:11Z</time>
      </trkpt>
      <trkpt lat="46.22115" lon="7.42913">
        <ele>1321</ele>
        <time>2016-05-05T12:38:23Z</time>
      </trkpt>
      <trkpt lat="46.2213" lon="7.42916">
        <ele>1321</ele>
        <time>2016-05-05T12:38:33Z</time>
      </trkpt>
      <trkpt lat="46.22145" lon="7.42908">
        <ele>1319</ele>
        <time>2016-05-05T12:38:44Z</time>
      </trkpt>
      <trkpt lat="46.22159" lon="7.42904">
        <ele>1321</ele>
        <time>2016-05-05T12:38:59Z</time>
      </trkpt>
      <trkpt lat="46.22166" lon="7.42911">
        <ele>1324</ele>
        <time>2016-05-05T12:39:00Z</time>
      </trkpt>
      <trkpt lat="46.22174" lon="7.42915">
        <ele>1326</ele>
        <time>2016-05-05T12:39:08Z</time>
      </trkpt>
      <trkpt lat="46.22175" lon="7.42905">
        <ele>1326</ele>
        <time>2016-05-05T12:39:14Z</time>
      </trkpt>
      <trkpt lat="46.22182" lon="7.42911">
        <ele>1327</ele>
        <time>2016-05-05T12:39:18Z</time>
      </trkpt>
      <trkpt lat="46.22193" lon="7.42917">
        <ele>1326</ele>
        <time>2016-05-05T12:39:24Z</time>
      </trkpt>
      <trkpt lat="46.22208" lon="7.42916">
        <ele>1323</ele>
        <time>2016-05-05T12:39:35Z</time>
      </trkpt>
      <trkpt lat="46.22211" lon="7.42906">
        <ele>1327</ele>
        <time>2016-05-05T12:39:39Z</time>
      </trkpt>
      <trkpt lat="46.22226" lon="7.42899">
        <ele>1327</ele>
        <time>2016-05-05T12:39:49Z</time>
      </trkpt>
      <trkpt lat="46.22233" lon="7.42901">
        <ele>1328</ele>
        <time>2016-05-05T12:39:53Z</time>
      </trkpt>
      <trkpt lat="46.22248" lon="7.42893">
        <ele>1328</ele>
        <time>2016-05-05T12:40:04Z</time>
      </trkpt>
      <trkpt lat="46.22257" lon="7.42877">
        <ele>1332</ele>
        <time>2016-05-05T12:40:14Z</time>
      </trkpt>
      <trkpt lat="46.22259" lon="7.42874">
        <ele>1330</ele>
        <time>2016-05-05T12:40:16Z</time>
      </trkpt>
      <trkpt lat="46.22261" lon="7.42882">
        <ele>1331</ele>
        <time>2016-05-05T12:40:18Z</time>
      </trkpt>
      <trkpt lat="46.22277" lon="7.42874">
        <ele>1324</ele>
        <time>2016-05-05T12:41:30Z</time>
      </trkpt>
      <trkpt lat="46.2229" lon="7.42865">
        <ele>1324</ele>
        <time>2016-05-05T12:41:39Z</time>
      </trkpt>
      <trkpt lat="46.22305" lon="7.42863">
        <ele>1321</ele>
        <time>2016-05-05T12:41:50Z</time>
      </trkpt>
      <trkpt lat="46.22306" lon="7.42861">
        <ele>1321</ele>
        <time>2016-05-05T12:41:51Z</time>
      </trkpt>
      <trkpt lat="46.22318" lon="7.4285">
        <ele>1323</ele>
        <time>2016-05-05T12:43:00Z</time>
      </trkpt>
      <trkpt lat="46.22332" lon="7.42843">
        <ele>1322</ele>
        <time>2016-05-05T12:43:07Z</time>
      </trkpt>
      <trkpt lat="46.22346" lon="7.42836">
        <ele>1326</ele>
        <time>2016-05-05T12:43:17Z</time>
      </trkpt>
      <trkpt lat="46.22352" lon="7.42831">
        <ele>1324</ele>
        <time>2016-05-05T12:43:21Z</time>
      </trkpt>
      <trkpt lat="46.22365" lon="7.42821">
        <ele>1327</ele>
        <time>2016-05-05T12:43:30Z</time>
      </trkpt>
      <trkpt lat="46.22379" lon="7.42812">
        <ele>1324</ele>
        <time>2016-05-05T12:43:43Z</time>
      </trkpt>
      <trkpt lat="46.2238" lon="7.42812">
        <ele>1324</ele>
        <time>2016-05-05T12:43:44Z</time>
      </trkpt>
      <trkpt lat="46.22393" lon="7.428">
        <ele>1325</ele>
        <time>2016-05-05T12:43:55Z</time>
      </trkpt>
      <trkpt lat="46.22407" lon="7.42792">
        <ele>1329</ele>
        <time>2016-05-05T12:44:04Z</time>
      </trkpt>
      <trkpt lat="46.22415" lon="7.42789">
        <ele>1329</ele>
        <time>2016-05-05T12:44:14Z</time>
      </trkpt>
      <trkpt lat="46.22428" lon="7.42794">
        <ele>1328</ele>
        <time>2016-05-05T12:44:20Z</time>
      </trkpt>
      <trkpt lat="46.22441" lon="7.42786">
        <ele>1330</ele>
        <time>2016-05-05T12:44:36Z</time>
      </trkpt>
      <trkpt lat="46.22443" lon="7.42785">
        <ele>1330</ele>
        <time>2016-05-05T12:44:37Z</time>
      </trkpt>
      <trkpt lat="46.22457" lon="7.42793">
        <ele>1328</ele>
        <time>2016-05-05T12:44:49Z</time>
      </trkpt>
      <trkpt lat="46.22473" lon="7.42793">
        <ele>1331</ele>
        <time>2016-05-05T12:44:59Z</time>
      </trkpt>
      <trkpt lat="46.22483" lon="7.428">
        <ele>1333</ele>
        <time>2016-05-05T12:45:07Z</time>
      </trkpt>
      <trkpt lat="46.22484" lon="7.42802">
        <ele>1332</ele>
        <time>2016-05-05T12:45:08Z</time>
      </trkpt>
      <trkpt lat="46.22486" lon="7.42791">
        <ele>1330</ele>
        <time>2016-05-05T12:45:12Z</time>
      </trkpt>
      <trkpt lat="46.22496" lon="7.42776">
        <ele>1330</ele>
        <time>2016-05-05T12:45:24Z</time>
      </trkpt>
      <trkpt lat="46.22511" lon="7.42776">
        <ele>1328</ele>
        <time>2016-05-05T12:45:31Z</time>
      </trkpt>
      <trkpt lat="46.22515" lon="7.42778">
        <ele>1331</ele>
        <time>2016-05-05T12:45:39Z</time>
      </trkpt>
      <trkpt lat="46.22525" lon="7.42763">
        <ele>1330</ele>
        <time>2016-05-05T12:45:46Z</time>
      </trkpt>
      <trkpt lat="46.22535" lon="7.42782">
        <ele>1326</ele>
        <time>2016-05-05T12:45:51Z</time>
      </trkpt>
      <trkpt lat="46.2254" lon="7.42776">
        <ele>1329</ele>
        <time>2016-05-05T12:45:56Z</time>
      </trkpt>
      <trkpt lat="46.22551" lon="7.42762">
        <ele>1323</ele>
        <time>2016-05-05T12:46:07Z</time>
      </trkpt>
      <trkpt lat="46.22566" lon="7.42762">
        <ele>1324</ele>
        <time>2016-05-05T12:46:17Z</time>
      </trkpt>
      <trkpt lat="46.22565" lon="7.42758">
        <ele>1324</ele>
        <time>2016-05-05T12:46:18Z</time>
      </trkpt>
      <trkpt lat="46.22564" lon="7.42759">
        <ele>1324</ele>
        <time>2016-05-05T12:46:19Z</time>
      </trkpt>
      <trkpt lat="46.22568" lon="7.42752">
        <ele>1322</ele>
        <time>2016-05-05T12:46:23Z</time>
      </trkpt>
      <trkpt lat="46.22577" lon="7.42735">
        <ele>1320</ele>
        <time>2016-05-05T12:46:36Z</time>
      </trkpt>
      <trkpt lat="46.22584" lon="7.42718">
        <ele>1316</ele>
        <time>2016-05-05T12:46:46Z</time>
      </trkpt>
      <trkpt lat="46.22595" lon="7.42704">
        <ele>1311</ele>
        <time>2016-05-05T12:47:01Z</time>
      </trkpt>
      <trkpt lat="46.22608" lon="7.42692">
        <ele>1315</ele>
        <time>2016-05-05T12:47:11Z</time>
      </trkpt>
      <trkpt lat="46.22609" lon="7.42691">
        <ele>1316</ele>
        <time>2016-05-05T12:47:11Z</time>
      </trkpt>
      <trkpt lat="46.22619" lon="7.42671">
        <ele>1320</ele>
        <time>2016-05-05T12:47:18Z</time>
      </trkpt>
      <trkpt lat="46.22618" lon="7.42676">
        <ele>1319</ele>
        <time>2016-05-05T12:47:19Z</time>
      </trkpt>
      <trkpt lat="46.22624" lon="7.42677">
        <ele>1320</ele>
        <time>2016-05-05T12:47:23Z</time>
      </trkpt>
      <trkpt lat="46.22625" lon="7.42669">
        <ele>1319</ele>
        <time>2016-05-05T12:47:28Z</time>
      </trkpt>
      <trkpt lat="46.22639" lon="7.42657">
        <ele>1315</ele>
        <time>2016-05-05T12:47:40Z</time>
      </trkpt>
      <trkpt lat="46.22648" lon="7.4264">
        <ele>1315</ele>
        <time>2016-05-05T12:47:53Z</time>
      </trkpt>
      <trkpt lat="46.22659" lon="7.42622">
        <ele>1310</ele>
        <time>2016-05-05T12:48:03Z</time>
      </trkpt>
      <trkpt lat="46.22666" lon="7.426">
        <ele>1303</ele>
        <time>2016-05-05T12:48:15Z</time>
      </trkpt>
      <trkpt lat="46.22659" lon="7.42585">
        <ele>1301</ele>
        <time>2016-05-05T12:48:22Z</time>
      </trkpt>
      <trkpt lat="46.22653" lon="7.42574">
        <ele>1302</ele>
        <time>2016-05-05T12:48:34Z</time>
      </trkpt>
      <trkpt lat="46.22652" lon="7.42562">
        <ele>1304</ele>
        <time>2016-05-05T12:48:40Z</time>
      </trkpt>
      <trkpt lat="46.22653" lon="7.42538">
        <ele>1300</ele>
        <time>2016-05-05T12:48:56Z</time>
      </trkpt>
      <trkpt lat="46.22663" lon="7.42522">
        <ele>1299</ele>
        <time>2016-05-05T12:49:08Z</time>
      </trkpt>
      <trkpt lat="46.22665" lon="7.42499">
        <ele>1297</ele>
        <time>2016-05-05T12:49:19Z</time>
      </trkpt>
      <trkpt lat="46.22651" lon="7.42491">
        <ele>1303</ele>
        <time>2016-05-05T12:49:31Z</time>
      </trkpt>
      <trkpt lat="46.22636" lon="7.42487">
        <ele>1307</ele>
        <time>2016-05-05T12:49:45Z</time>
      </trkpt>
    </trkseg>
  </trk>
</gpx>